<?xml version="1.0" encoding="UTF-8" standalone="no" ?>
<gpx xmlns="http://www.topografix.com/GPX/1/1" xmlns:xsi="http://www.w3.org/2001/XMLSchema-instance" xsi:schemaLocation="http://www.topografix.com/GPX/1/1 http://www.topografix.com/GPX/1/1/gpx.xsd" version="1.1" creator="VisuGPX - https://www.visugpx.com">
  <metadata>
    <name>Baraqueville sentier val de lenne</name>
    <desc><![CDATA[Sentier balisé du val de lenne]]></desc>
  </metadata>
  <trk>
    <name><![CDATA[Baraqueville Cyclisme]]></name>
    <trkseg>
      <trkpt lat="44.28271" lon="2.44015">
        <ele>744.79998779297</ele>
        <time>2018-03-25T12:56:52.000Z</time>
      </trkpt>
      <trkpt lat="44.28276" lon="2.44039">
        <ele>745</ele>
        <time>2018-03-25T12:56:58.000Z</time>
      </trkpt>
      <trkpt lat="44.28278" lon="2.44055">
        <ele>745.20001220703</ele>
        <time>2018-03-25T12:57:01.000Z</time>
      </trkpt>
      <trkpt lat="44.28293" lon="2.44078">
        <ele>745</ele>
        <time>2018-03-25T12:57:06.000Z</time>
      </trkpt>
      <trkpt lat="44.28301" lon="2.44085">
        <ele>745</ele>
        <time>2018-03-25T12:57:08.000Z</time>
      </trkpt>
      <trkpt lat="44.28327" lon="2.44125">
        <ele>745</ele>
        <time>2018-03-25T12:57:15.000Z</time>
      </trkpt>
      <trkpt lat="44.28343" lon="2.44149">
        <ele>745</ele>
        <time>2018-03-25T12:57:19.000Z</time>
      </trkpt>
      <trkpt lat="44.28369" lon="2.44167">
        <ele>744.79998779297</ele>
        <time>2018-03-25T12:57:24.000Z</time>
      </trkpt>
      <trkpt lat="44.28375" lon="2.44168">
        <ele>744.79998779297</ele>
        <time>2018-03-25T12:57:25.000Z</time>
      </trkpt>
      <trkpt lat="44.28436" lon="2.44172">
        <ele>745</ele>
        <time>2018-03-25T12:57:35.000Z</time>
      </trkpt>
      <trkpt lat="44.28489" lon="2.44177">
        <ele>745.40002441406</ele>
        <time>2018-03-25T12:57:44.000Z</time>
      </trkpt>
      <trkpt lat="44.28523" lon="2.44194">
        <ele>745.59997558594</ele>
        <time>2018-03-25T12:57:50.000Z</time>
      </trkpt>
      <trkpt lat="44.28582" lon="2.44234">
        <ele>745.79998779297</ele>
        <time>2018-03-25T12:58:01.000Z</time>
      </trkpt>
      <trkpt lat="44.28627" lon="2.44264">
        <ele>746</ele>
        <time>2018-03-25T12:58:10.000Z</time>
      </trkpt>
      <trkpt lat="44.28639" lon="2.44273">
        <ele>745.79998779297</ele>
        <time>2018-03-25T12:58:13.000Z</time>
      </trkpt>
      <trkpt lat="44.28635" lon="2.4428">
        <ele>745.59997558594</ele>
        <time>2018-03-25T12:58:17.000Z</time>
      </trkpt>
      <trkpt lat="44.28627" lon="2.44281">
        <ele>744.79998779297</ele>
        <time>2018-03-25T12:58:21.000Z</time>
      </trkpt>
      <trkpt lat="44.28624" lon="2.44287">
        <ele>744.40002441406</ele>
        <time>2018-03-25T12:58:23.000Z</time>
      </trkpt>
      <trkpt lat="44.28615" lon="2.44308">
        <ele>743.40002441406</ele>
        <time>2018-03-25T12:58:28.000Z</time>
      </trkpt>
      <trkpt lat="44.28606" lon="2.44316">
        <ele>742.79998779297</ele>
        <time>2018-03-25T12:58:33.000Z</time>
      </trkpt>
      <trkpt lat="44.28609" lon="2.4432">
        <ele>743</ele>
        <time>2018-03-25T12:58:36.000Z</time>
      </trkpt>
      <trkpt lat="44.28628" lon="2.44333">
        <ele>744.59997558594</ele>
        <time>2018-03-25T12:58:43.000Z</time>
      </trkpt>
      <trkpt lat="44.28659" lon="2.4435">
        <ele>746.40002441406</ele>
        <time>2018-03-25T12:58:52.000Z</time>
      </trkpt>
      <trkpt lat="44.28687" lon="2.44359">
        <ele>747.20001220703</ele>
        <time>2018-03-25T12:59:00.000Z</time>
      </trkpt>
      <trkpt lat="44.28712" lon="2.4437">
        <ele>746.59997558594</ele>
        <time>2018-03-25T12:59:06.000Z</time>
      </trkpt>
      <trkpt lat="44.28737" lon="2.44379">
        <ele>745.79998779297</ele>
        <time>2018-03-25T12:59:11.000Z</time>
      </trkpt>
      <trkpt lat="44.28744" lon="2.44391">
        <ele>745.40002441406</ele>
        <time>2018-03-25T12:59:15.000Z</time>
      </trkpt>
      <trkpt lat="44.2874" lon="2.44398">
        <ele>745.40002441406</ele>
        <time>2018-03-25T12:59:17.000Z</time>
      </trkpt>
      <trkpt lat="44.28724" lon="2.44421">
        <ele>745.20001220703</ele>
        <time>2018-03-25T12:59:23.000Z</time>
      </trkpt>
      <trkpt lat="44.2871" lon="2.44459">
        <ele>743</ele>
        <time>2018-03-25T12:59:29.000Z</time>
      </trkpt>
      <trkpt lat="44.28697" lon="2.44512">
        <ele>742.59997558594</ele>
        <time>2018-03-25T12:59:35.000Z</time>
      </trkpt>
      <trkpt lat="44.28692" lon="2.44558">
        <ele>744.59997558594</ele>
        <time>2018-03-25T12:59:41.000Z</time>
      </trkpt>
      <trkpt lat="44.28692" lon="2.44597">
        <ele>745</ele>
        <time>2018-03-25T12:59:47.000Z</time>
      </trkpt>
      <trkpt lat="44.28692" lon="2.44604">
        <ele>744.59997558594</ele>
        <time>2018-03-25T12:59:48.000Z</time>
      </trkpt>
      <trkpt lat="44.28697" lon="2.44627">
        <ele>743.79998779297</ele>
        <time>2018-03-25T12:59:51.000Z</time>
      </trkpt>
      <trkpt lat="44.28698" lon="2.44655">
        <ele>743.59997558594</ele>
        <time>2018-03-25T12:59:55.000Z</time>
      </trkpt>
      <trkpt lat="44.28693" lon="2.44664">
        <ele>743.20001220703</ele>
        <time>2018-03-25T12:59:57.000Z</time>
      </trkpt>
      <trkpt lat="44.28673" lon="2.44698">
        <ele>740.59997558594</ele>
        <time>2018-03-25T13:00:03.000Z</time>
      </trkpt>
      <trkpt lat="44.28671" lon="2.44715">
        <ele>739.20001220703</ele>
        <time>2018-03-25T13:00:07.000Z</time>
      </trkpt>
      <trkpt lat="44.28676" lon="2.44718">
        <ele>739</ele>
        <time>2018-03-25T13:00:09.000Z</time>
      </trkpt>
      <trkpt lat="44.28703" lon="2.4473">
        <ele>739</ele>
        <time>2018-03-25T13:00:16.000Z</time>
      </trkpt>
      <trkpt lat="44.28708" lon="2.44732">
        <ele>739</ele>
        <time>2018-03-25T13:00:17.000Z</time>
      </trkpt>
      <trkpt lat="44.28737" lon="2.44732">
        <ele>737.79998779297</ele>
        <time>2018-03-25T13:00:22.000Z</time>
      </trkpt>
      <trkpt lat="44.28755" lon="2.4473">
        <ele>736.40002441406</ele>
        <time>2018-03-25T13:00:26.000Z</time>
      </trkpt>
      <trkpt lat="44.28761" lon="2.44747">
        <ele>735.20001220703</ele>
        <time>2018-03-25T13:00:29.000Z</time>
      </trkpt>
      <trkpt lat="44.28758" lon="2.44768">
        <ele>733.40002441406</ele>
        <time>2018-03-25T13:00:32.000Z</time>
      </trkpt>
      <trkpt lat="44.28754" lon="2.44774">
        <ele>733</ele>
        <time>2018-03-25T13:00:33.000Z</time>
      </trkpt>
      <trkpt lat="44.28739" lon="2.44799">
        <ele>732.59997558594</ele>
        <time>2018-03-25T13:00:37.000Z</time>
      </trkpt>
      <trkpt lat="44.28728" lon="2.44824">
        <ele>732.20001220703</ele>
        <time>2018-03-25T13:00:41.000Z</time>
      </trkpt>
      <trkpt lat="44.28722" lon="2.44844">
        <ele>732.40002441406</ele>
        <time>2018-03-25T13:00:44.000Z</time>
      </trkpt>
      <trkpt lat="44.2872" lon="2.44857">
        <ele>732.59997558594</ele>
        <time>2018-03-25T13:00:46.000Z</time>
      </trkpt>
      <trkpt lat="44.2872" lon="2.44903">
        <ele>731.59997558594</ele>
        <time>2018-03-25T13:00:52.000Z</time>
      </trkpt>
      <trkpt lat="44.2872" lon="2.44977">
        <ele>731.59997558594</ele>
        <time>2018-03-25T13:01:01.000Z</time>
      </trkpt>
      <trkpt lat="44.2872" lon="2.44993">
        <ele>731.20001220703</ele>
        <time>2018-03-25T13:01:03.000Z</time>
      </trkpt>
      <trkpt lat="44.28726" lon="2.45027">
        <ele>729</ele>
        <time>2018-03-25T13:01:08.000Z</time>
      </trkpt>
      <trkpt lat="44.28718" lon="2.4504">
        <ele>727.40002441406</ele>
        <time>2018-03-25T13:01:11.000Z</time>
      </trkpt>
      <trkpt lat="44.28707" lon="2.45047">
        <ele>726.20001220703</ele>
        <time>2018-03-25T13:01:13.000Z</time>
      </trkpt>
      <trkpt lat="44.28667" lon="2.45057">
        <ele>721.79998779297</ele>
        <time>2018-03-25T13:01:18.000Z</time>
      </trkpt>
      <trkpt lat="44.28622" lon="2.45071">
        <ele>719.59997558594</ele>
        <time>2018-03-25T13:01:23.000Z</time>
      </trkpt>
      <trkpt lat="44.28596" lon="2.45093">
        <ele>720.79998779297</ele>
        <time>2018-03-25T13:01:27.000Z</time>
      </trkpt>
      <trkpt lat="44.28592" lon="2.45099">
        <ele>721.20001220703</ele>
        <time>2018-03-25T13:01:28.000Z</time>
      </trkpt>
      <trkpt lat="44.28572" lon="2.45127">
        <ele>724.59997558594</ele>
        <time>2018-03-25T13:01:34.000Z</time>
      </trkpt>
      <trkpt lat="44.28555" lon="2.45134">
        <ele>726.59997558594</ele>
        <time>2018-03-25T13:01:39.000Z</time>
      </trkpt>
      <trkpt lat="44.28531" lon="2.45134">
        <ele>729</ele>
        <time>2018-03-25T13:01:46.000Z</time>
      </trkpt>
      <trkpt lat="44.285" lon="2.45133">
        <ele>730</ele>
        <time>2018-03-25T13:01:54.000Z</time>
      </trkpt>
      <trkpt lat="44.28459" lon="2.45133">
        <ele>730.79998779297</ele>
        <time>2018-03-25T13:02:04.000Z</time>
      </trkpt>
      <trkpt lat="44.28436" lon="2.45132">
        <ele>731</ele>
        <time>2018-03-25T13:02:10.000Z</time>
      </trkpt>
      <trkpt lat="44.28409" lon="2.45132">
        <ele>731.20001220703</ele>
        <time>2018-03-25T13:02:17.000Z</time>
      </trkpt>
      <trkpt lat="44.28369" lon="2.45129">
        <ele>732.40002441406</ele>
        <time>2018-03-25T13:02:27.000Z</time>
      </trkpt>
      <trkpt lat="44.28337" lon="2.45125">
        <ele>734.20001220703</ele>
        <time>2018-03-25T13:02:36.000Z</time>
      </trkpt>
      <trkpt lat="44.28307" lon="2.45122">
        <ele>737.40002441406</ele>
        <time>2018-03-25T13:02:45.000Z</time>
      </trkpt>
      <trkpt lat="44.28289" lon="2.45118">
        <ele>739.40002441406</ele>
        <time>2018-03-25T13:02:51.000Z</time>
      </trkpt>
      <trkpt lat="44.28257" lon="2.45116">
        <ele>741.79998779297</ele>
        <time>2018-03-25T13:03:01.000Z</time>
      </trkpt>
      <trkpt lat="44.2824" lon="2.45115">
        <ele>744.40002441406</ele>
        <time>2018-03-25T13:03:08.000Z</time>
      </trkpt>
      <trkpt lat="44.28227" lon="2.45114">
        <ele>746.40002441406</ele>
        <time>2018-03-25T13:03:13.000Z</time>
      </trkpt>
      <trkpt lat="44.28211" lon="2.45114">
        <ele>748.20001220703</ele>
        <time>2018-03-25T13:03:19.000Z</time>
      </trkpt>
      <trkpt lat="44.28193" lon="2.45115">
        <ele>749.79998779297</ele>
        <time>2018-03-25T13:03:26.000Z</time>
      </trkpt>
      <trkpt lat="44.28174" lon="2.4512">
        <ele>750.79998779297</ele>
        <time>2018-03-25T13:03:33.000Z</time>
      </trkpt>
      <trkpt lat="44.28154" lon="2.45127">
        <ele>752.20001220703</ele>
        <time>2018-03-25T13:03:41.000Z</time>
      </trkpt>
      <trkpt lat="44.28134" lon="2.45135">
        <ele>753.20001220703</ele>
        <time>2018-03-25T13:03:49.000Z</time>
      </trkpt>
      <trkpt lat="44.28109" lon="2.45152">
        <ele>754.40002441406</ele>
        <time>2018-03-25T13:03:58.000Z</time>
      </trkpt>
      <trkpt lat="44.28083" lon="2.45168">
        <ele>755.20001220703</ele>
        <time>2018-03-25T13:04:07.000Z</time>
      </trkpt>
      <trkpt lat="44.28057" lon="2.45179">
        <ele>756.79998779297</ele>
        <time>2018-03-25T13:04:16.000Z</time>
      </trkpt>
      <trkpt lat="44.28036" lon="2.45185">
        <ele>758.40002441406</ele>
        <time>2018-03-25T13:04:23.000Z</time>
      </trkpt>
      <trkpt lat="44.28018" lon="2.45191">
        <ele>759.79998779297</ele>
        <time>2018-03-25T13:04:29.000Z</time>
      </trkpt>
      <trkpt lat="44.27991" lon="2.45195">
        <ele>761.79998779297</ele>
        <time>2018-03-25T13:04:38.000Z</time>
      </trkpt>
      <trkpt lat="44.27961" lon="2.45196">
        <ele>763.20001220703</ele>
        <time>2018-03-25T13:04:48.000Z</time>
      </trkpt>
      <trkpt lat="44.27933" lon="2.45196">
        <ele>764.20001220703</ele>
        <time>2018-03-25T13:04:57.000Z</time>
      </trkpt>
      <trkpt lat="44.27908" lon="2.45192">
        <ele>766</ele>
        <time>2018-03-25T13:05:05.000Z</time>
      </trkpt>
      <trkpt lat="44.27875" lon="2.45188">
        <ele>769</ele>
        <time>2018-03-25T13:05:15.000Z</time>
      </trkpt>
      <trkpt lat="44.27852" lon="2.45187">
        <ele>770.79998779297</ele>
        <time>2018-03-25T13:05:23.000Z</time>
      </trkpt>
      <trkpt lat="44.27831" lon="2.45186">
        <ele>772</ele>
        <time>2018-03-25T13:05:31.000Z</time>
      </trkpt>
      <trkpt lat="44.27815" lon="2.45185">
        <ele>772.79998779297</ele>
        <time>2018-03-25T13:05:39.000Z</time>
      </trkpt>
      <trkpt lat="44.27797" lon="2.45182">
        <ele>773.40002441406</ele>
        <time>2018-03-25T13:05:47.000Z</time>
      </trkpt>
      <trkpt lat="44.27786" lon="2.45179">
        <ele>774</ele>
        <time>2018-03-25T13:05:53.000Z</time>
      </trkpt>
      <trkpt lat="44.27788" lon="2.45167">
        <ele>773.20001220703</ele>
        <time>2018-03-25T13:05:58.000Z</time>
      </trkpt>
      <trkpt lat="44.27805" lon="2.45148">
        <ele>771</ele>
        <time>2018-03-25T13:06:04.000Z</time>
      </trkpt>
      <trkpt lat="44.27825" lon="2.45117">
        <ele>768.40002441406</ele>
        <time>2018-03-25T13:06:09.000Z</time>
      </trkpt>
      <trkpt lat="44.27844" lon="2.45075">
        <ele>765.40002441406</ele>
        <time>2018-03-25T13:06:14.000Z</time>
      </trkpt>
      <trkpt lat="44.27872" lon="2.45029">
        <ele>761.40002441406</ele>
        <time>2018-03-25T13:06:20.000Z</time>
      </trkpt>
      <trkpt lat="44.27877" lon="2.45021">
        <ele>760.79998779297</ele>
        <time>2018-03-25T13:06:21.000Z</time>
      </trkpt>
      <trkpt lat="44.27902" lon="2.45001">
        <ele>758</ele>
        <time>2018-03-25T13:06:25.000Z</time>
      </trkpt>
      <trkpt lat="44.27968" lon="2.44976">
        <ele>751</ele>
        <time>2018-03-25T13:06:33.000Z</time>
      </trkpt>
      <trkpt lat="44.28026" lon="2.44951">
        <ele>746</ele>
        <time>2018-03-25T13:06:40.000Z</time>
      </trkpt>
      <trkpt lat="44.28042" lon="2.44946">
        <ele>745</ele>
        <time>2018-03-25T13:06:42.000Z</time>
      </trkpt>
      <trkpt lat="44.28059" lon="2.44928">
        <ele>743.59997558594</ele>
        <time>2018-03-25T13:06:46.000Z</time>
      </trkpt>
      <trkpt lat="44.28059" lon="2.44921">
        <ele>743.20001220703</ele>
        <time>2018-03-25T13:06:47.000Z</time>
      </trkpt>
      <trkpt lat="44.28056" lon="2.44871">
        <ele>743.59997558594</ele>
        <time>2018-03-25T13:06:54.000Z</time>
      </trkpt>
      <trkpt lat="44.28056" lon="2.44813">
        <ele>744.20001220703</ele>
        <time>2018-03-25T13:07:02.000Z</time>
      </trkpt>
      <trkpt lat="44.28058" lon="2.44779">
        <ele>743.59997558594</ele>
        <time>2018-03-25T13:07:07.000Z</time>
      </trkpt>
      <trkpt lat="44.28055" lon="2.44734">
        <ele>742.20001220703</ele>
        <time>2018-03-25T13:07:13.000Z</time>
      </trkpt>
      <trkpt lat="44.28059" lon="2.44703">
        <ele>743.79998779297</ele>
        <time>2018-03-25T13:07:18.000Z</time>
      </trkpt>
      <trkpt lat="44.28062" lon="2.44683">
        <ele>747.20001220703</ele>
        <time>2018-03-25T13:07:24.000Z</time>
      </trkpt>
      <trkpt lat="44.28066" lon="2.44662">
        <ele>748.20001220703</ele>
        <time>2018-03-25T13:07:30.000Z</time>
      </trkpt>
      <trkpt lat="44.28071" lon="2.44628">
        <ele>747.59997558594</ele>
        <time>2018-03-25T13:07:38.000Z</time>
      </trkpt>
      <trkpt lat="44.28077" lon="2.44595">
        <ele>748.59997558594</ele>
        <time>2018-03-25T13:07:47.000Z</time>
      </trkpt>
      <trkpt lat="44.28082" lon="2.44566">
        <ele>749.59997558594</ele>
        <time>2018-03-25T13:07:55.000Z</time>
      </trkpt>
      <trkpt lat="44.28086" lon="2.44542">
        <ele>751.59997558594</ele>
        <time>2018-03-25T13:08:03.000Z</time>
      </trkpt>
      <trkpt lat="44.28085" lon="2.44537">
        <ele>752.40002441406</ele>
        <time>2018-03-25T13:08:05.000Z</time>
      </trkpt>
      <trkpt lat="44.28077" lon="2.44533">
        <ele>753.20001220703</ele>
        <time>2018-03-25T13:08:10.000Z</time>
      </trkpt>
      <trkpt lat="44.28074" lon="2.44533">
        <ele>753.40002441406</ele>
        <time>2018-03-25T13:08:11.000Z</time>
      </trkpt>
      <trkpt lat="44.28049" lon="2.44532">
        <ele>755</ele>
        <time>2018-03-25T13:08:21.000Z</time>
      </trkpt>
      <trkpt lat="44.28037" lon="2.44531">
        <ele>756.59997558594</ele>
        <time>2018-03-25T13:08:27.000Z</time>
      </trkpt>
      <trkpt lat="44.28021" lon="2.44522">
        <ele>758.20001220703</ele>
        <time>2018-03-25T13:08:35.000Z</time>
      </trkpt>
      <trkpt lat="44.28004" lon="2.44514">
        <ele>759.79998779297</ele>
        <time>2018-03-25T13:08:43.000Z</time>
      </trkpt>
      <trkpt lat="44.27989" lon="2.44507">
        <ele>760.79998779297</ele>
        <time>2018-03-25T13:08:51.000Z</time>
      </trkpt>
      <trkpt lat="44.27981" lon="2.44505">
        <ele>761.79998779297</ele>
        <time>2018-03-25T13:08:56.000Z</time>
      </trkpt>
      <trkpt lat="44.27976" lon="2.44498">
        <ele>764.20001220703</ele>
        <time>2018-03-25T13:09:01.000Z</time>
      </trkpt>
      <trkpt lat="44.2797" lon="2.44491">
        <ele>766.59997558594</ele>
        <time>2018-03-25T13:09:07.000Z</time>
      </trkpt>
      <trkpt lat="44.27972" lon="2.44481">
        <ele>769.40002441406</ele>
        <time>2018-03-25T13:09:13.000Z</time>
      </trkpt>
      <trkpt lat="44.27973" lon="2.44479">
        <ele>769.79998779297</ele>
        <time>2018-03-25T13:09:14.000Z</time>
      </trkpt>
      <trkpt lat="44.27981" lon="2.44464">
        <ele>772</ele>
        <time>2018-03-25T13:09:23.000Z</time>
      </trkpt>
      <trkpt lat="44.27982" lon="2.44445">
        <ele>772.59997558594</ele>
        <time>2018-03-25T13:09:33.000Z</time>
      </trkpt>
      <trkpt lat="44.27982" lon="2.44428">
        <ele>773.20001220703</ele>
        <time>2018-03-25T13:09:41.000Z</time>
      </trkpt>
      <trkpt lat="44.27983" lon="2.4441">
        <ele>773.40002441406</ele>
        <time>2018-03-25T13:09:49.000Z</time>
      </trkpt>
      <trkpt lat="44.27985" lon="2.44385">
        <ele>773.59997558594</ele>
        <time>2018-03-25T13:09:58.000Z</time>
      </trkpt>
      <trkpt lat="44.27986" lon="2.44367">
        <ele>773.20001220703</ele>
        <time>2018-03-25T13:10:04.000Z</time>
      </trkpt>
      <trkpt lat="44.27986" lon="2.44345">
        <ele>772.79998779297</ele>
        <time>2018-03-25T13:10:10.000Z</time>
      </trkpt>
      <trkpt lat="44.27985" lon="2.44303">
        <ele>771.40002441406</ele>
        <time>2018-03-25T13:10:20.000Z</time>
      </trkpt>
      <trkpt lat="44.27986" lon="2.44276">
        <ele>767.59997558594</ele>
        <time>2018-03-25T13:10:25.000Z</time>
      </trkpt>
      <trkpt lat="44.27986" lon="2.44257">
        <ele>765</ele>
        <time>2018-03-25T13:10:27.000Z</time>
      </trkpt>
      <trkpt lat="44.27997" lon="2.4422">
        <ele>764.79998779297</ele>
        <time>2018-03-25T13:10:31.000Z</time>
      </trkpt>
      <trkpt lat="44.28007" lon="2.44199">
        <ele>766.20001220703</ele>
        <time>2018-03-25T13:10:35.000Z</time>
      </trkpt>
      <trkpt lat="44.28017" lon="2.44176">
        <ele>768.40002441406</ele>
        <time>2018-03-25T13:10:42.000Z</time>
      </trkpt>
      <trkpt lat="44.28031" lon="2.44155">
        <ele>769.79998779297</ele>
        <time>2018-03-25T13:10:51.000Z</time>
      </trkpt>
      <trkpt lat="44.28047" lon="2.44147">
        <ele>767.59997558594</ele>
        <time>2018-03-25T13:10:55.000Z</time>
      </trkpt>
      <trkpt lat="44.28067" lon="2.44135">
        <ele>765</ele>
        <time>2018-03-25T13:10:59.000Z</time>
      </trkpt>
      <trkpt lat="44.281" lon="2.44098">
        <ele>760.20001220703</ele>
        <time>2018-03-25T13:11:06.000Z</time>
      </trkpt>
      <trkpt lat="44.28106" lon="2.4409">
        <ele>759.20001220703</ele>
        <time>2018-03-25T13:11:08.000Z</time>
      </trkpt>
      <trkpt lat="44.28101" lon="2.44075">
        <ele>759</ele>
        <time>2018-03-25T13:11:13.000Z</time>
      </trkpt>
      <trkpt lat="44.281" lon="2.44059">
        <ele>758.20001220703</ele>
        <time>2018-03-25T13:11:17.000Z</time>
      </trkpt>
      <trkpt lat="44.28104" lon="2.4405">
        <ele>756.79998779297</ele>
        <time>2018-03-25T13:11:19.000Z</time>
      </trkpt>
      <trkpt lat="44.28124" lon="2.44023">
        <ele>752.79998779297</ele>
        <time>2018-03-25T13:11:25.000Z</time>
      </trkpt>
      <trkpt lat="44.2815" lon="2.43989">
        <ele>749</ele>
        <time>2018-03-25T13:11:30.000Z</time>
      </trkpt>
      <trkpt lat="44.2816" lon="2.43977">
        <ele>748.20001220703</ele>
        <time>2018-03-25T13:11:32.000Z</time>
      </trkpt>
      <trkpt lat="44.28174" lon="2.43971">
        <ele>747.79998779297</ele>
        <time>2018-03-25T13:11:36.000Z</time>
      </trkpt>
      <trkpt lat="44.2818" lon="2.43976">
        <ele>747.79998779297</ele>
        <time>2018-03-25T13:11:38.000Z</time>
      </trkpt>
      <trkpt lat="44.28215" lon="2.44005">
        <ele>748.20001220703</ele>
        <time>2018-03-25T13:11:48.000Z</time>
      </trkpt>
      <trkpt lat="44.28241" lon="2.44032">
        <ele>746.59997558594</ele>
        <time>2018-03-25T13:11:55.000Z</time>
      </trkpt>
      <trkpt lat="44.28253" lon="2.44046">
        <ele>746</ele>
        <time>2018-03-25T13:11:58.000Z</time>
      </trkpt>
      <trkpt lat="44.28266" lon="2.4405">
        <ele>745.59997558594</ele>
        <time>2018-03-25T13:12:02.000Z</time>
      </trkpt>
      <trkpt lat="44.28266" lon="2.44042">
        <ele>745.40002441406</ele>
        <time>2018-03-25T13:12:04.000Z</time>
      </trkpt>
      <trkpt lat="44.2827" lon="2.44013">
        <ele>744.40002441406</ele>
        <time>2018-03-25T13:12:10.000Z</time>
      </trkpt>
      <trkpt lat="44.28267" lon="2.4399">
        <ele>744.40002441406</ele>
        <time>2018-03-25T13:12:14.000Z</time>
      </trkpt>
      <trkpt lat="44.28257" lon="2.43953">
        <ele>744.59997558594</ele>
        <time>2018-03-25T13:12:21.000Z</time>
      </trkpt>
      <trkpt lat="44.28248" lon="2.43935">
        <ele>746</ele>
        <time>2018-03-25T13:12:25.000Z</time>
      </trkpt>
      <trkpt lat="44.28238" lon="2.4392">
        <ele>746.40002441406</ele>
        <time>2018-03-25T13:12:30.000Z</time>
      </trkpt>
      <trkpt lat="44.28232" lon="2.43913">
        <ele>745.59997558594</ele>
        <time>2018-03-25T13:12:32.000Z</time>
      </trkpt>
      <trkpt lat="44.28213" lon="2.43908">
        <ele>744.79998779297</ele>
        <time>2018-03-25T13:12:36.000Z</time>
      </trkpt>
      <trkpt lat="44.28191" lon="2.43911">
        <ele>744.59997558594</ele>
        <time>2018-03-25T13:12:41.000Z</time>
      </trkpt>
      <trkpt lat="44.2819" lon="2.43894">
        <ele>744.40002441406</ele>
        <time>2018-03-25T13:12:44.000Z</time>
      </trkpt>
      <trkpt lat="44.28193" lon="2.43877">
        <ele>744.40002441406</ele>
        <time>2018-03-25T13:12:47.000Z</time>
      </trkpt>
      <trkpt lat="44.28195" lon="2.43864">
        <ele>744.20001220703</ele>
        <time>2018-03-25T13:12:49.000Z</time>
      </trkpt>
      <trkpt lat="44.2819" lon="2.43842">
        <ele>744.40002441406</ele>
        <time>2018-03-25T13:12:53.000Z</time>
      </trkpt>
      <trkpt lat="44.28175" lon="2.43826">
        <ele>746.20001220703</ele>
        <time>2018-03-25T13:12:58.000Z</time>
      </trkpt>
      <trkpt lat="44.28164" lon="2.43811">
        <ele>747.20001220703</ele>
        <time>2018-03-25T13:13:03.000Z</time>
      </trkpt>
      <trkpt lat="44.28163" lon="2.43808">
        <ele>747.20001220703</ele>
        <time>2018-03-25T13:13:04.000Z</time>
      </trkpt>
      <trkpt lat="44.2815" lon="2.43779">
        <ele>746.79998779297</ele>
        <time>2018-03-25T13:13:10.000Z</time>
      </trkpt>
      <trkpt lat="44.28144" lon="2.43761">
        <ele>746.79998779297</ele>
        <time>2018-03-25T13:13:13.000Z</time>
      </trkpt>
      <trkpt lat="44.28132" lon="2.43724">
        <ele>746.40002441406</ele>
        <time>2018-03-25T13:13:20.000Z</time>
      </trkpt>
      <trkpt lat="44.2812" lon="2.43682">
        <ele>747.20001220703</ele>
        <time>2018-03-25T13:13:28.000Z</time>
      </trkpt>
      <trkpt lat="44.28121" lon="2.43654">
        <ele>747.79998779297</ele>
        <time>2018-03-25T13:13:33.000Z</time>
      </trkpt>
      <trkpt lat="44.28117" lon="2.43618">
        <ele>750</ele>
        <time>2018-03-25T13:13:40.000Z</time>
      </trkpt>
      <trkpt lat="44.28113" lon="2.43586">
        <ele>751.20001220703</ele>
        <time>2018-03-25T13:13:47.000Z</time>
      </trkpt>
      <trkpt lat="44.28112" lon="2.43558">
        <ele>752</ele>
        <time>2018-03-25T13:13:53.000Z</time>
      </trkpt>
      <trkpt lat="44.28109" lon="2.43539">
        <ele>752.20001220703</ele>
        <time>2018-03-25T13:13:57.000Z</time>
      </trkpt>
      <trkpt lat="44.28108" lon="2.43532">
        <ele>752.20001220703</ele>
        <time>2018-03-25T13:13:58.000Z</time>
      </trkpt>
      <trkpt lat="44.28108" lon="2.43521">
        <ele>751.79998779297</ele>
        <time>2018-03-25T13:14:00.000Z</time>
      </trkpt>
      <trkpt lat="44.28119" lon="2.43502">
        <ele>751.79998779297</ele>
        <time>2018-03-25T13:14:04.000Z</time>
      </trkpt>
      <trkpt lat="44.28134" lon="2.43493">
        <ele>751.79998779297</ele>
        <time>2018-03-25T13:14:07.000Z</time>
      </trkpt>
      <trkpt lat="44.28171" lon="2.4347">
        <ele>752.20001220703</ele>
        <time>2018-03-25T13:14:14.000Z</time>
      </trkpt>
      <trkpt lat="44.28188" lon="2.43457">
        <ele>753.79998779297</ele>
        <time>2018-03-25T13:14:19.000Z</time>
      </trkpt>
      <trkpt lat="44.28203" lon="2.43447">
        <ele>755.20001220703</ele>
        <time>2018-03-25T13:14:25.000Z</time>
      </trkpt>
      <trkpt lat="44.28211" lon="2.43453">
        <ele>754.59997558594</ele>
        <time>2018-03-25T13:14:29.000Z</time>
      </trkpt>
      <trkpt lat="44.28228" lon="2.43482">
        <ele>752</ele>
        <time>2018-03-25T13:14:35.000Z</time>
      </trkpt>
      <trkpt lat="44.28243" lon="2.43499">
        <ele>749.59997558594</ele>
        <time>2018-03-25T13:14:38.000Z</time>
      </trkpt>
      <trkpt lat="44.28273" lon="2.43517">
        <ele>747.20001220703</ele>
        <time>2018-03-25T13:14:42.000Z</time>
      </trkpt>
      <trkpt lat="44.28316" lon="2.4354">
        <ele>746.40002441406</ele>
        <time>2018-03-25T13:14:48.000Z</time>
      </trkpt>
      <trkpt lat="44.28332" lon="2.43562">
        <ele>747</ele>
        <time>2018-03-25T13:14:52.000Z</time>
      </trkpt>
      <trkpt lat="44.28332" lon="2.43569">
        <ele>747.20001220703</ele>
        <time>2018-03-25T13:14:53.000Z</time>
      </trkpt>
      <trkpt lat="44.28334" lon="2.43621">
        <ele>748.20001220703</ele>
        <time>2018-03-25T13:15:02.000Z</time>
      </trkpt>
      <trkpt lat="44.28341" lon="2.43656">
        <ele>748.79998779297</ele>
        <time>2018-03-25T13:15:09.000Z</time>
      </trkpt>
      <trkpt lat="44.28353" lon="2.43694">
        <ele>747.79998779297</ele>
        <time>2018-03-25T13:15:16.000Z</time>
      </trkpt>
      <trkpt lat="44.28371" lon="2.43713">
        <ele>746</ele>
        <time>2018-03-25T13:15:20.000Z</time>
      </trkpt>
      <trkpt lat="44.28391" lon="2.43711">
        <ele>745.40002441406</ele>
        <time>2018-03-25T13:15:23.000Z</time>
      </trkpt>
      <trkpt lat="44.28404" lon="2.43698">
        <ele>745.79998779297</ele>
        <time>2018-03-25T13:15:26.000Z</time>
      </trkpt>
      <trkpt lat="44.28408" lon="2.43689">
        <ele>746.59997558594</ele>
        <time>2018-03-25T13:15:28.000Z</time>
      </trkpt>
      <trkpt lat="44.28421" lon="2.43661">
        <ele>749.40002441406</ele>
        <time>2018-03-25T13:15:35.000Z</time>
      </trkpt>
      <trkpt lat="44.2843" lon="2.4364">
        <ele>751</ele>
        <time>2018-03-25T13:15:41.000Z</time>
      </trkpt>
      <trkpt lat="44.28441" lon="2.43615">
        <ele>753</ele>
        <time>2018-03-25T13:15:48.000Z</time>
      </trkpt>
      <trkpt lat="44.28452" lon="2.4359">
        <ele>754</ele>
        <time>2018-03-25T13:15:54.000Z</time>
      </trkpt>
      <trkpt lat="44.2846" lon="2.43577">
        <ele>754.20001220703</ele>
        <time>2018-03-25T13:15:57.000Z</time>
      </trkpt>
      <trkpt lat="44.28478" lon="2.43565">
        <ele>754.20001220703</ele>
        <time>2018-03-25T13:16:02.000Z</time>
      </trkpt>
      <trkpt lat="44.28494" lon="2.43573">
        <ele>755</ele>
        <time>2018-03-25T13:16:06.000Z</time>
      </trkpt>
      <trkpt lat="44.2853" lon="2.43601">
        <ele>754.79998779297</ele>
        <time>2018-03-25T13:16:15.000Z</time>
      </trkpt>
      <trkpt lat="44.28564" lon="2.43625">
        <ele>753</ele>
        <time>2018-03-25T13:16:21.000Z</time>
      </trkpt>
      <trkpt lat="44.28571" lon="2.4363">
        <ele>752.79998779297</ele>
        <time>2018-03-25T13:16:22.000Z</time>
      </trkpt>
      <trkpt lat="44.28589" lon="2.43663">
        <ele>749.59997558594</ele>
        <time>2018-03-25T13:16:26.000Z</time>
      </trkpt>
      <trkpt lat="44.28607" lon="2.43754">
        <ele>746</ele>
        <time>2018-03-25T13:16:34.000Z</time>
      </trkpt>
      <trkpt lat="44.28616" lon="2.43797">
        <ele>746.59997558594</ele>
        <time>2018-03-25T13:16:39.000Z</time>
      </trkpt>
      <trkpt lat="44.28624" lon="2.4383">
        <ele>748.59997558594</ele>
        <time>2018-03-25T13:16:45.000Z</time>
      </trkpt>
      <trkpt lat="44.28635" lon="2.43867">
        <ele>750.59997558594</ele>
        <time>2018-03-25T13:16:53.000Z</time>
      </trkpt>
      <trkpt lat="44.28649" lon="2.43916">
        <ele>751.40002441406</ele>
        <time>2018-03-25T13:17:02.000Z</time>
      </trkpt>
      <trkpt lat="44.28663" lon="2.43964">
        <ele>751</ele>
        <time>2018-03-25T13:17:10.000Z</time>
      </trkpt>
      <trkpt lat="44.28675" lon="2.44005">
        <ele>748.20001220703</ele>
        <time>2018-03-25T13:17:15.000Z</time>
      </trkpt>
      <trkpt lat="44.28678" lon="2.44047">
        <ele>746</ele>
        <time>2018-03-25T13:17:19.000Z</time>
      </trkpt>
      <trkpt lat="44.28675" lon="2.44093">
        <ele>745.40002441406</ele>
        <time>2018-03-25T13:17:25.000Z</time>
      </trkpt>
      <trkpt lat="44.28681" lon="2.44128">
        <ele>745.20001220703</ele>
        <time>2018-03-25T13:17:30.000Z</time>
      </trkpt>
      <trkpt lat="44.28689" lon="2.44165">
        <ele>744.59997558594</ele>
        <time>2018-03-25T13:17:36.000Z</time>
      </trkpt>
      <trkpt lat="44.28692" lon="2.44185">
        <ele>744.20001220703</ele>
        <time>2018-03-25T13:17:41.000Z</time>
      </trkpt>
      <trkpt lat="44.28694" lon="2.44196">
        <ele>743.79998779297</ele>
        <time>2018-03-25T13:17:43.000Z</time>
      </trkpt>
      <trkpt lat="44.28693" lon="2.44222">
        <ele>744.20001220703</ele>
        <time>2018-03-25T13:17:47.000Z</time>
      </trkpt>
      <trkpt lat="44.28681" lon="2.44256">
        <ele>744.79998779297</ele>
        <time>2018-03-25T13:17:53.000Z</time>
      </trkpt>
      <trkpt lat="44.28664" lon="2.44279">
        <ele>745.20001220703</ele>
        <time>2018-03-25T13:17:59.000Z</time>
      </trkpt>
      <trkpt lat="44.2866" lon="2.4428">
        <ele>745</ele>
        <time>2018-03-25T13:18:00.000Z</time>
      </trkpt>
      <trkpt lat="44.2864" lon="2.44284">
        <ele>744.59997558594</ele>
        <time>2018-03-25T13:18:05.000Z</time>
      </trkpt>
      <trkpt lat="44.28626" lon="2.44283">
        <ele>744</ele>
        <time>2018-03-25T13:18:09.000Z</time>
      </trkpt>
      <trkpt lat="44.28615" lon="2.44302">
        <ele>743.59997558594</ele>
        <time>2018-03-25T13:18:15.000Z</time>
      </trkpt>
      <trkpt lat="44.28612" lon="2.44311">
        <ele>743</ele>
        <time>2018-03-25T13:18:17.000Z</time>
      </trkpt>
      <trkpt lat="44.28603" lon="2.44315">
        <ele>742.20001220703</ele>
        <time>2018-03-25T13:18:21.000Z</time>
      </trkpt>
      <trkpt lat="44.28603" lon="2.44322">
        <ele>742.59997558594</ele>
        <time>2018-03-25T13:18:24.000Z</time>
      </trkpt>
      <trkpt lat="44.28609" lon="2.44326">
        <ele>743</ele>
        <time>2018-03-25T13:18:27.000Z</time>
      </trkpt>
      <trkpt lat="44.28634" lon="2.44342">
        <ele>745</ele>
        <time>2018-03-25T13:18:35.000Z</time>
      </trkpt>
      <trkpt lat="44.28657" lon="2.44355">
        <ele>746.20001220703</ele>
        <time>2018-03-25T13:18:42.000Z</time>
      </trkpt>
      <trkpt lat="44.28685" lon="2.44363">
        <ele>747.40002441406</ele>
        <time>2018-03-25T13:18:51.000Z</time>
      </trkpt>
      <trkpt lat="44.28716" lon="2.44375">
        <ele>747.20001220703</ele>
        <time>2018-03-25T13:19:00.000Z</time>
      </trkpt>
      <trkpt lat="44.28738" lon="2.44382">
        <ele>746.59997558594</ele>
        <time>2018-03-25T13:19:05.000Z</time>
      </trkpt>
      <trkpt lat="44.28741" lon="2.44397">
        <ele>746.40002441406</ele>
        <time>2018-03-25T13:19:09.000Z</time>
      </trkpt>
      <trkpt lat="44.28734" lon="2.44409">
        <ele>745.79998779297</ele>
        <time>2018-03-25T13:19:12.000Z</time>
      </trkpt>
      <trkpt lat="44.28714" lon="2.44449">
        <ele>744.20001220703</ele>
        <time>2018-03-25T13:19:20.000Z</time>
      </trkpt>
      <trkpt lat="44.28701" lon="2.4449">
        <ele>743</ele>
        <time>2018-03-25T13:19:25.000Z</time>
      </trkpt>
      <trkpt lat="44.28698" lon="2.44507">
        <ele>743</ele>
        <time>2018-03-25T13:19:27.000Z</time>
      </trkpt>
      <trkpt lat="44.28695" lon="2.44535">
        <ele>743.59997558594</ele>
        <time>2018-03-25T13:19:31.000Z</time>
      </trkpt>
      <trkpt lat="44.28691" lon="2.44581">
        <ele>745.59997558594</ele>
        <time>2018-03-25T13:19:39.000Z</time>
      </trkpt>
      <trkpt lat="44.28692" lon="2.44606">
        <ele>745.40002441406</ele>
        <time>2018-03-25T13:19:43.000Z</time>
      </trkpt>
      <trkpt lat="44.28699" lon="2.4464">
        <ele>744.79998779297</ele>
        <time>2018-03-25T13:19:47.000Z</time>
      </trkpt>
      <trkpt lat="44.28696" lon="2.44664">
        <ele>745.20001220703</ele>
        <time>2018-03-25T13:19:51.000Z</time>
      </trkpt>
      <trkpt lat="44.28683" lon="2.44683">
        <ele>743.79998779297</ele>
        <time>2018-03-25T13:19:55.000Z</time>
      </trkpt>
      <trkpt lat="44.28672" lon="2.447">
        <ele>742.20001220703</ele>
        <time>2018-03-25T13:19:58.000Z</time>
      </trkpt>
      <trkpt lat="44.28669" lon="2.44718">
        <ele>740.59997558594</ele>
        <time>2018-03-25T13:20:02.000Z</time>
      </trkpt>
      <trkpt lat="44.28675" lon="2.44722">
        <ele>740.40002441406</ele>
        <time>2018-03-25T13:20:04.000Z</time>
      </trkpt>
      <trkpt lat="44.28709" lon="2.44736">
        <ele>740.40002441406</ele>
        <time>2018-03-25T13:20:13.000Z</time>
      </trkpt>
      <trkpt lat="44.28737" lon="2.44734">
        <ele>738.20001220703</ele>
        <time>2018-03-25T13:20:18.000Z</time>
      </trkpt>
      <trkpt lat="44.28758" lon="2.44737">
        <ele>736.79998779297</ele>
        <time>2018-03-25T13:20:23.000Z</time>
      </trkpt>
      <trkpt lat="44.2876" lon="2.44759">
        <ele>735.40002441406</ele>
        <time>2018-03-25T13:20:26.000Z</time>
      </trkpt>
      <trkpt lat="44.28751" lon="2.44783">
        <ele>734</ele>
        <time>2018-03-25T13:20:29.000Z</time>
      </trkpt>
      <trkpt lat="44.28747" lon="2.4479">
        <ele>733.79998779297</ele>
        <time>2018-03-25T13:20:30.000Z</time>
      </trkpt>
      <trkpt lat="44.28732" lon="2.44818">
        <ele>732.79998779297</ele>
        <time>2018-03-25T13:20:34.000Z</time>
      </trkpt>
      <trkpt lat="44.2872" lon="2.44865">
        <ele>733</ele>
        <time>2018-03-25T13:20:40.000Z</time>
      </trkpt>
      <trkpt lat="44.2872" lon="2.44873">
        <ele>732.79998779297</ele>
        <time>2018-03-25T13:20:41.000Z</time>
      </trkpt>
      <trkpt lat="44.2872" lon="2.44935">
        <ele>732</ele>
        <time>2018-03-25T13:20:48.000Z</time>
      </trkpt>
      <trkpt lat="44.28719" lon="2.44979">
        <ele>731.79998779297</ele>
        <time>2018-03-25T13:20:54.000Z</time>
      </trkpt>
      <trkpt lat="44.2872" lon="2.45">
        <ele>731.20001220703</ele>
        <time>2018-03-25T13:20:57.000Z</time>
      </trkpt>
      <trkpt lat="44.28726" lon="2.45033">
        <ele>729</ele>
        <time>2018-03-25T13:21:02.000Z</time>
      </trkpt>
      <trkpt lat="44.28714" lon="2.45045">
        <ele>727.20001220703</ele>
        <time>2018-03-25T13:21:05.000Z</time>
      </trkpt>
      <trkpt lat="44.2867" lon="2.4506">
        <ele>722.59997558594</ele>
        <time>2018-03-25T13:21:11.000Z</time>
      </trkpt>
      <trkpt lat="44.28618" lon="2.45075">
        <ele>720</ele>
        <time>2018-03-25T13:21:17.000Z</time>
      </trkpt>
      <trkpt lat="44.28592" lon="2.45102">
        <ele>721.20001220703</ele>
        <time>2018-03-25T13:21:22.000Z</time>
      </trkpt>
      <trkpt lat="44.28579" lon="2.45121">
        <ele>723.40002441406</ele>
        <time>2018-03-25T13:21:27.000Z</time>
      </trkpt>
      <trkpt lat="44.28566" lon="2.45135">
        <ele>725.40002441406</ele>
        <time>2018-03-25T13:21:33.000Z</time>
      </trkpt>
      <trkpt lat="44.28551" lon="2.45139">
        <ele>727.20001220703</ele>
        <time>2018-03-25T13:21:38.000Z</time>
      </trkpt>
      <trkpt lat="44.28534" lon="2.45139">
        <ele>729.59997558594</ele>
        <time>2018-03-25T13:21:44.000Z</time>
      </trkpt>
      <trkpt lat="44.28509" lon="2.45138">
        <ele>731.40002441406</ele>
        <time>2018-03-25T13:21:52.000Z</time>
      </trkpt>
      <trkpt lat="44.28481" lon="2.45137">
        <ele>732.59997558594</ele>
        <time>2018-03-25T13:22:01.000Z</time>
      </trkpt>
      <trkpt lat="44.28459" lon="2.45137">
        <ele>732</ele>
        <time>2018-03-25T13:22:07.000Z</time>
      </trkpt>
      <trkpt lat="44.28426" lon="2.45136">
        <ele>732.20001220703</ele>
        <time>2018-03-25T13:22:16.000Z</time>
      </trkpt>
      <trkpt lat="44.28392" lon="2.45133">
        <ele>732.79998779297</ele>
        <time>2018-03-25T13:22:25.000Z</time>
      </trkpt>
      <trkpt lat="44.28357" lon="2.4513">
        <ele>733.79998779297</ele>
        <time>2018-03-25T13:22:35.000Z</time>
      </trkpt>
      <trkpt lat="44.28333" lon="2.45127">
        <ele>735</ele>
        <time>2018-03-25T13:22:43.000Z</time>
      </trkpt>
      <trkpt lat="44.28321" lon="2.45126">
        <ele>736</ele>
        <time>2018-03-25T13:22:49.000Z</time>
      </trkpt>
      <trkpt lat="44.28308" lon="2.45123">
        <ele>738.20001220703</ele>
        <time>2018-03-25T13:22:54.000Z</time>
      </trkpt>
      <trkpt lat="44.28286" lon="2.45119">
        <ele>741.59997558594</ele>
        <time>2018-03-25T13:23:03.000Z</time>
      </trkpt>
      <trkpt lat="44.28266" lon="2.45116">
        <ele>743.20001220703</ele>
        <time>2018-03-25T13:23:11.000Z</time>
      </trkpt>
      <trkpt lat="44.28248" lon="2.45114">
        <ele>745.20001220703</ele>
        <time>2018-03-25T13:23:19.000Z</time>
      </trkpt>
      <trkpt lat="44.28236" lon="2.45113">
        <ele>747</ele>
        <time>2018-03-25T13:23:25.000Z</time>
      </trkpt>
      <trkpt lat="44.28223" lon="2.45111">
        <ele>748.40002441406</ele>
        <time>2018-03-25T13:23:32.000Z</time>
      </trkpt>
      <trkpt lat="44.28208" lon="2.45112">
        <ele>750</ele>
        <time>2018-03-25T13:23:39.000Z</time>
      </trkpt>
      <trkpt lat="44.28193" lon="2.45113">
        <ele>752.20001220703</ele>
        <time>2018-03-25T13:23:46.000Z</time>
      </trkpt>
      <trkpt lat="44.28175" lon="2.45118">
        <ele>754</ele>
        <time>2018-03-25T13:23:54.000Z</time>
      </trkpt>
      <trkpt lat="44.28158" lon="2.45124">
        <ele>756</ele>
        <time>2018-03-25T13:24:02.000Z</time>
      </trkpt>
      <trkpt lat="44.28137" lon="2.45132">
        <ele>757.20001220703</ele>
        <time>2018-03-25T13:24:11.000Z</time>
      </trkpt>
      <trkpt lat="44.28113" lon="2.45148">
        <ele>757.40002441406</ele>
        <time>2018-03-25T13:24:21.000Z</time>
      </trkpt>
      <trkpt lat="44.28089" lon="2.45165">
        <ele>758.20001220703</ele>
        <time>2018-03-25T13:24:31.000Z</time>
      </trkpt>
      <trkpt lat="44.28067" lon="2.45175">
        <ele>759.40002441406</ele>
        <time>2018-03-25T13:24:39.000Z</time>
      </trkpt>
      <trkpt lat="44.28038" lon="2.45184">
        <ele>761.20001220703</ele>
        <time>2018-03-25T13:24:48.000Z</time>
      </trkpt>
      <trkpt lat="44.28016" lon="2.4519">
        <ele>762.40002441406</ele>
        <time>2018-03-25T13:24:55.000Z</time>
      </trkpt>
      <trkpt lat="44.27983" lon="2.45195">
        <ele>764.59997558594</ele>
        <time>2018-03-25T13:25:06.000Z</time>
      </trkpt>
      <trkpt lat="44.2795" lon="2.45196">
        <ele>765.79998779297</ele>
        <time>2018-03-25T13:25:17.000Z</time>
      </trkpt>
      <trkpt lat="44.27918" lon="2.45193">
        <ele>767.40002441406</ele>
        <time>2018-03-25T13:25:27.000Z</time>
      </trkpt>
      <trkpt lat="44.27883" lon="2.45188">
        <ele>770.59997558594</ele>
        <time>2018-03-25T13:25:39.000Z</time>
      </trkpt>
      <trkpt lat="44.27857" lon="2.45186">
        <ele>772.79998779297</ele>
        <time>2018-03-25T13:25:48.000Z</time>
      </trkpt>
      <trkpt lat="44.27834" lon="2.45185">
        <ele>774</ele>
        <time>2018-03-25T13:25:56.000Z</time>
      </trkpt>
      <trkpt lat="44.27806" lon="2.45183">
        <ele>775.40002441406</ele>
        <time>2018-03-25T13:26:06.000Z</time>
      </trkpt>
      <trkpt lat="44.27772" lon="2.45177">
        <ele>776.20001220703</ele>
        <time>2018-03-25T13:26:17.000Z</time>
      </trkpt>
      <trkpt lat="44.27747" lon="2.45177">
        <ele>777.40002441406</ele>
        <time>2018-03-25T13:26:25.000Z</time>
      </trkpt>
      <trkpt lat="44.2772" lon="2.45184">
        <ele>778.79998779297</ele>
        <time>2018-03-25T13:26:34.000Z</time>
      </trkpt>
      <trkpt lat="44.277" lon="2.45194">
        <ele>779.40002441406</ele>
        <time>2018-03-25T13:26:42.000Z</time>
      </trkpt>
      <trkpt lat="44.27674" lon="2.45208">
        <ele>778.59997558594</ele>
        <time>2018-03-25T13:26:51.000Z</time>
      </trkpt>
      <trkpt lat="44.2766" lon="2.45213">
        <ele>778.20001220703</ele>
        <time>2018-03-25T13:26:56.000Z</time>
      </trkpt>
      <trkpt lat="44.27651" lon="2.45214">
        <ele>777.79998779297</ele>
        <time>2018-03-25T13:27:03.000Z</time>
      </trkpt>
      <trkpt lat="44.27645" lon="2.45215">
        <ele>778</ele>
        <time>2018-03-25T13:27:10.000Z</time>
      </trkpt>
      <trkpt lat="44.27624" lon="2.45219">
        <ele>776.59997558594</ele>
        <time>2018-03-25T13:27:15.000Z</time>
      </trkpt>
      <trkpt lat="44.2759" lon="2.45226">
        <ele>775</ele>
        <time>2018-03-25T13:27:21.000Z</time>
      </trkpt>
      <trkpt lat="44.27552" lon="2.45233">
        <ele>774</ele>
        <time>2018-03-25T13:27:28.000Z</time>
      </trkpt>
      <trkpt lat="44.27547" lon="2.45234">
        <ele>773.79998779297</ele>
        <time>2018-03-25T13:27:29.000Z</time>
      </trkpt>
      <trkpt lat="44.27527" lon="2.45243">
        <ele>773.40002441406</ele>
        <time>2018-03-25T13:27:33.000Z</time>
      </trkpt>
      <trkpt lat="44.27517" lon="2.4525">
        <ele>773</ele>
        <time>2018-03-25T13:27:35.000Z</time>
      </trkpt>
      <trkpt lat="44.27476" lon="2.45297">
        <ele>770.40002441406</ele>
        <time>2018-03-25T13:27:44.000Z</time>
      </trkpt>
      <trkpt lat="44.27444" lon="2.45337">
        <ele>769.40002441406</ele>
        <time>2018-03-25T13:27:51.000Z</time>
      </trkpt>
      <trkpt lat="44.27418" lon="2.45358">
        <ele>769.59997558594</ele>
        <time>2018-03-25T13:27:57.000Z</time>
      </trkpt>
      <trkpt lat="44.27414" lon="2.45361">
        <ele>769.79998779297</ele>
        <time>2018-03-25T13:27:58.000Z</time>
      </trkpt>
      <trkpt lat="44.27382" lon="2.45383">
        <ele>771</ele>
        <time>2018-03-25T13:28:07.000Z</time>
      </trkpt>
      <trkpt lat="44.27354" lon="2.45401">
        <ele>769.59997558594</ele>
        <time>2018-03-25T13:28:14.000Z</time>
      </trkpt>
      <trkpt lat="44.2732" lon="2.45424">
        <ele>767</ele>
        <time>2018-03-25T13:28:20.000Z</time>
      </trkpt>
      <trkpt lat="44.27275" lon="2.4546">
        <ele>765.20001220703</ele>
        <time>2018-03-25T13:28:28.000Z</time>
      </trkpt>
      <trkpt lat="44.27269" lon="2.45464">
        <ele>765.20001220703</ele>
        <time>2018-03-25T13:28:29.000Z</time>
      </trkpt>
      <trkpt lat="44.27255" lon="2.45486">
        <ele>765.20001220703</ele>
        <time>2018-03-25T13:28:33.000Z</time>
      </trkpt>
      <trkpt lat="44.27255" lon="2.45507">
        <ele>765.40002441406</ele>
        <time>2018-03-25T13:28:36.000Z</time>
      </trkpt>
      <trkpt lat="44.2726" lon="2.45526">
        <ele>766</ele>
        <time>2018-03-25T13:28:39.000Z</time>
      </trkpt>
      <trkpt lat="44.2727" lon="2.45562">
        <ele>766.79998779297</ele>
        <time>2018-03-25T13:28:46.000Z</time>
      </trkpt>
      <trkpt lat="44.27272" lon="2.45575">
        <ele>766.79998779297</ele>
        <time>2018-03-25T13:28:49.000Z</time>
      </trkpt>
      <trkpt lat="44.27258" lon="2.45589">
        <ele>767</ele>
        <time>2018-03-25T13:28:54.000Z</time>
      </trkpt>
      <trkpt lat="44.27251" lon="2.45592">
        <ele>766.79998779297</ele>
        <time>2018-03-25T13:28:56.000Z</time>
      </trkpt>
      <trkpt lat="44.27242" lon="2.4558">
        <ele>766</ele>
        <time>2018-03-25T13:29:00.000Z</time>
      </trkpt>
      <trkpt lat="44.27241" lon="2.45575">
        <ele>765.79998779297</ele>
        <time>2018-03-25T13:29:01.000Z</time>
      </trkpt>
      <trkpt lat="44.27234" lon="2.45527">
        <ele>763.79998779297</ele>
        <time>2018-03-25T13:29:10.000Z</time>
      </trkpt>
      <trkpt lat="44.27232" lon="2.45489">
        <ele>763</ele>
        <time>2018-03-25T13:29:16.000Z</time>
      </trkpt>
      <trkpt lat="44.27233" lon="2.45436">
        <ele>760.79998779297</ele>
        <time>2018-03-25T13:29:23.000Z</time>
      </trkpt>
      <trkpt lat="44.27241" lon="2.45347">
        <ele>757.79998779297</ele>
        <time>2018-03-25T13:29:34.000Z</time>
      </trkpt>
      <trkpt lat="44.27248" lon="2.45312">
        <ele>757.20001220703</ele>
        <time>2018-03-25T13:29:40.000Z</time>
      </trkpt>
      <trkpt lat="44.27252" lon="2.45293">
        <ele>757.59997558594</ele>
        <time>2018-03-25T13:29:45.000Z</time>
      </trkpt>
      <trkpt lat="44.27254" lon="2.45274">
        <ele>757.40002441406</ele>
        <time>2018-03-25T13:29:50.000Z</time>
      </trkpt>
      <trkpt lat="44.27259" lon="2.45236">
        <ele>757.59997558594</ele>
        <time>2018-03-25T13:29:58.000Z</time>
      </trkpt>
      <trkpt lat="44.27262" lon="2.45197">
        <ele>756.59997558594</ele>
        <time>2018-03-25T13:30:06.000Z</time>
      </trkpt>
      <trkpt lat="44.27263" lon="2.45174">
        <ele>755</ele>
        <time>2018-03-25T13:30:09.000Z</time>
      </trkpt>
      <trkpt lat="44.27262" lon="2.45141">
        <ele>755</ele>
        <time>2018-03-25T13:30:13.000Z</time>
      </trkpt>
      <trkpt lat="44.27266" lon="2.45112">
        <ele>757.40002441406</ele>
        <time>2018-03-25T13:30:19.000Z</time>
      </trkpt>
      <trkpt lat="44.27267" lon="2.45089">
        <ele>759.20001220703</ele>
        <time>2018-03-25T13:30:25.000Z</time>
      </trkpt>
      <trkpt lat="44.27263" lon="2.4506">
        <ele>760.20001220703</ele>
        <time>2018-03-25T13:30:32.000Z</time>
      </trkpt>
      <trkpt lat="44.27258" lon="2.45036">
        <ele>761</ele>
        <time>2018-03-25T13:30:39.000Z</time>
      </trkpt>
      <trkpt lat="44.2725" lon="2.44994">
        <ele>759</ele>
        <time>2018-03-25T13:30:49.000Z</time>
      </trkpt>
      <trkpt lat="44.27249" lon="2.44988">
        <ele>758.59997558594</ele>
        <time>2018-03-25T13:30:50.000Z</time>
      </trkpt>
      <trkpt lat="44.27232" lon="2.44954">
        <ele>755.20001220703</ele>
        <time>2018-03-25T13:30:55.000Z</time>
      </trkpt>
      <trkpt lat="44.27228" lon="2.44947">
        <ele>754.79998779297</ele>
        <time>2018-03-25T13:30:56.000Z</time>
      </trkpt>
      <trkpt lat="44.27189" lon="2.44909">
        <ele>750.79998779297</ele>
        <time>2018-03-25T13:31:02.000Z</time>
      </trkpt>
      <trkpt lat="44.27172" lon="2.44884">
        <ele>749.40002441406</ele>
        <time>2018-03-25T13:31:06.000Z</time>
      </trkpt>
      <trkpt lat="44.27157" lon="2.44864">
        <ele>750.40002441406</ele>
        <time>2018-03-25T13:31:11.000Z</time>
      </trkpt>
      <trkpt lat="44.27146" lon="2.44844">
        <ele>750.20001220703</ele>
        <time>2018-03-25T13:31:16.000Z</time>
      </trkpt>
      <trkpt lat="44.2714" lon="2.44836">
        <ele>750.79998779297</ele>
        <time>2018-03-25T13:31:18.000Z</time>
      </trkpt>
      <trkpt lat="44.27125" lon="2.4481">
        <ele>752.20001220703</ele>
        <time>2018-03-25T13:31:24.000Z</time>
      </trkpt>
      <trkpt lat="44.2711" lon="2.44787">
        <ele>754.79998779297</ele>
        <time>2018-03-25T13:31:30.000Z</time>
      </trkpt>
      <trkpt lat="44.27099" lon="2.44769">
        <ele>757</ele>
        <time>2018-03-25T13:31:35.000Z</time>
      </trkpt>
      <trkpt lat="44.27088" lon="2.44754">
        <ele>759.79998779297</ele>
        <time>2018-03-25T13:31:40.000Z</time>
      </trkpt>
      <trkpt lat="44.27081" lon="2.44731">
        <ele>758</ele>
        <time>2018-03-25T13:31:48.000Z</time>
      </trkpt>
      <trkpt lat="44.27078" lon="2.44709">
        <ele>756.40002441406</ele>
        <time>2018-03-25T13:31:53.000Z</time>
      </trkpt>
      <trkpt lat="44.27071" lon="2.44687">
        <ele>756.59997558594</ele>
        <time>2018-03-25T13:31:58.000Z</time>
      </trkpt>
      <trkpt lat="44.27048" lon="2.44658">
        <ele>754.59997558594</ele>
        <time>2018-03-25T13:32:04.000Z</time>
      </trkpt>
      <trkpt lat="44.27036" lon="2.44642">
        <ele>754.40002441406</ele>
        <time>2018-03-25T13:32:08.000Z</time>
      </trkpt>
      <trkpt lat="44.27034" lon="2.44637">
        <ele>754.59997558594</ele>
        <time>2018-03-25T13:32:10.000Z</time>
      </trkpt>
      <trkpt lat="44.27025" lon="2.44615">
        <ele>755.79998779297</ele>
        <time>2018-03-25T13:32:17.000Z</time>
      </trkpt>
      <trkpt lat="44.27017" lon="2.44596">
        <ele>758.20001220703</ele>
        <time>2018-03-25T13:32:23.000Z</time>
      </trkpt>
      <trkpt lat="44.27011" lon="2.44587">
        <ele>760.20001220703</ele>
        <time>2018-03-25T13:32:28.000Z</time>
      </trkpt>
      <trkpt lat="44.27001" lon="2.44585">
        <ele>760.59997558594</ele>
        <time>2018-03-25T13:32:33.000Z</time>
      </trkpt>
      <trkpt lat="44.26989" lon="2.4458">
        <ele>759.20001220703</ele>
        <time>2018-03-25T13:32:37.000Z</time>
      </trkpt>
      <trkpt lat="44.26971" lon="2.44564">
        <ele>756.59997558594</ele>
        <time>2018-03-25T13:32:41.000Z</time>
      </trkpt>
      <trkpt lat="44.26958" lon="2.44543">
        <ele>754</ele>
        <time>2018-03-25T13:32:44.000Z</time>
      </trkpt>
      <trkpt lat="44.26933" lon="2.4452">
        <ele>752</ele>
        <time>2018-03-25T13:32:48.000Z</time>
      </trkpt>
      <trkpt lat="44.26926" lon="2.44519">
        <ele>751.79998779297</ele>
        <time>2018-03-25T13:32:49.000Z</time>
      </trkpt>
      <trkpt lat="44.26887" lon="2.44511">
        <ele>750</ele>
        <time>2018-03-25T13:32:55.000Z</time>
      </trkpt>
      <trkpt lat="44.2686" lon="2.44495">
        <ele>747.20001220703</ele>
        <time>2018-03-25T13:32:59.000Z</time>
      </trkpt>
      <trkpt lat="44.26846" lon="2.44483">
        <ele>745.40002441406</ele>
        <time>2018-03-25T13:33:01.000Z</time>
      </trkpt>
      <trkpt lat="44.2682" lon="2.44448">
        <ele>740.59997558594</ele>
        <time>2018-03-25T13:33:05.000Z</time>
      </trkpt>
      <trkpt lat="44.26796" lon="2.44401">
        <ele>736</ele>
        <time>2018-03-25T13:33:09.000Z</time>
      </trkpt>
      <trkpt lat="44.26791" lon="2.44389">
        <ele>735.20001220703</ele>
        <time>2018-03-25T13:33:10.000Z</time>
      </trkpt>
      <trkpt lat="44.26764" lon="2.44349">
        <ele>733.20001220703</ele>
        <time>2018-03-25T13:33:14.000Z</time>
      </trkpt>
      <trkpt lat="44.26728" lon="2.44325">
        <ele>731.79998779297</ele>
        <time>2018-03-25T13:33:20.000Z</time>
      </trkpt>
      <trkpt lat="44.26717" lon="2.44324">
        <ele>731.40002441406</ele>
        <time>2018-03-25T13:33:23.000Z</time>
      </trkpt>
      <trkpt lat="44.26699" lon="2.44327">
        <ele>731.20001220703</ele>
        <time>2018-03-25T13:33:27.000Z</time>
      </trkpt>
      <trkpt lat="44.26677" lon="2.4432">
        <ele>730.59997558594</ele>
        <time>2018-03-25T13:33:32.000Z</time>
      </trkpt>
      <trkpt lat="44.26669" lon="2.44312">
        <ele>730</ele>
        <time>2018-03-25T13:33:34.000Z</time>
      </trkpt>
      <trkpt lat="44.26648" lon="2.44301">
        <ele>727.59997558594</ele>
        <time>2018-03-25T13:33:38.000Z</time>
      </trkpt>
      <trkpt lat="44.26643" lon="2.44296">
        <ele>727.20001220703</ele>
        <time>2018-03-25T13:33:39.000Z</time>
      </trkpt>
      <trkpt lat="44.26634" lon="2.44283">
        <ele>725</ele>
        <time>2018-03-25T13:33:41.000Z</time>
      </trkpt>
      <trkpt lat="44.26618" lon="2.44267">
        <ele>720.59997558594</ele>
        <time>2018-03-25T13:33:44.000Z</time>
      </trkpt>
      <trkpt lat="44.26606" lon="2.44229">
        <ele>715.40002441406</ele>
        <time>2018-03-25T13:33:48.000Z</time>
      </trkpt>
      <trkpt lat="44.26605" lon="2.44219">
        <ele>713.59997558594</ele>
        <time>2018-03-25T13:33:49.000Z</time>
      </trkpt>
      <trkpt lat="44.26607" lon="2.44178">
        <ele>708.20001220703</ele>
        <time>2018-03-25T13:33:52.000Z</time>
      </trkpt>
      <trkpt lat="44.26593" lon="2.44139">
        <ele>704.20001220703</ele>
        <time>2018-03-25T13:33:56.000Z</time>
      </trkpt>
      <trkpt lat="44.26586" lon="2.44133">
        <ele>703.40002441406</ele>
        <time>2018-03-25T13:33:57.000Z</time>
      </trkpt>
      <trkpt lat="44.26553" lon="2.44109">
        <ele>702.40002441406</ele>
        <time>2018-03-25T13:34:02.000Z</time>
      </trkpt>
      <trkpt lat="44.26531" lon="2.44099">
        <ele>703.79998779297</ele>
        <time>2018-03-25T13:34:07.000Z</time>
      </trkpt>
      <trkpt lat="44.26526" lon="2.44094">
        <ele>706</ele>
        <time>2018-03-25T13:34:09.000Z</time>
      </trkpt>
      <trkpt lat="44.2652" lon="2.44078">
        <ele>710.20001220703</ele>
        <time>2018-03-25T13:34:15.000Z</time>
      </trkpt>
      <trkpt lat="44.26518" lon="2.44071">
        <ele>712.40002441406</ele>
        <time>2018-03-25T13:34:18.000Z</time>
      </trkpt>
      <trkpt lat="44.26511" lon="2.44059">
        <ele>714.79998779297</ele>
        <time>2018-03-25T13:34:24.000Z</time>
      </trkpt>
      <trkpt lat="44.26504" lon="2.4405">
        <ele>716.79998779297</ele>
        <time>2018-03-25T13:34:29.000Z</time>
      </trkpt>
      <trkpt lat="44.26499" lon="2.4404">
        <ele>720.20001220703</ele>
        <time>2018-03-25T13:34:34.000Z</time>
      </trkpt>
      <trkpt lat="44.26497" lon="2.44033">
        <ele>721.79998779297</ele>
        <time>2018-03-25T13:34:37.000Z</time>
      </trkpt>
      <trkpt lat="44.26485" lon="2.44017">
        <ele>722.40002441406</ele>
        <time>2018-03-25T13:34:46.000Z</time>
      </trkpt>
      <trkpt lat="44.26477" lon="2.44006">
        <ele>722.79998779297</ele>
        <time>2018-03-25T13:34:53.000Z</time>
      </trkpt>
      <trkpt lat="44.26469" lon="2.43999">
        <ele>724</ele>
        <time>2018-03-25T13:34:57.000Z</time>
      </trkpt>
      <trkpt lat="44.26458" lon="2.43993">
        <ele>725.59997558594</ele>
        <time>2018-03-25T13:35:02.000Z</time>
      </trkpt>
      <trkpt lat="44.26449" lon="2.43984">
        <ele>728</ele>
        <time>2018-03-25T13:35:07.000Z</time>
      </trkpt>
      <trkpt lat="44.26437" lon="2.43969">
        <ele>729.20001220703</ele>
        <time>2018-03-25T13:35:14.000Z</time>
      </trkpt>
      <trkpt lat="44.26424" lon="2.43955">
        <ele>729</ele>
        <time>2018-03-25T13:35:21.000Z</time>
      </trkpt>
      <trkpt lat="44.26409" lon="2.4394">
        <ele>728.79998779297</ele>
        <time>2018-03-25T13:35:29.000Z</time>
      </trkpt>
      <trkpt lat="44.26393" lon="2.43919">
        <ele>730.79998779297</ele>
        <time>2018-03-25T13:35:38.000Z</time>
      </trkpt>
      <trkpt lat="44.2637" lon="2.4389">
        <ele>731.79998779297</ele>
        <time>2018-03-25T13:35:49.000Z</time>
      </trkpt>
      <trkpt lat="44.26348" lon="2.4386">
        <ele>733.59997558594</ele>
        <time>2018-03-25T13:36:00.000Z</time>
      </trkpt>
      <trkpt lat="44.26332" lon="2.43827">
        <ele>735.20001220703</ele>
        <time>2018-03-25T13:36:10.000Z</time>
      </trkpt>
      <trkpt lat="44.26326" lon="2.43797">
        <ele>736.40002441406</ele>
        <time>2018-03-25T13:36:18.000Z</time>
      </trkpt>
      <trkpt lat="44.26316" lon="2.43773">
        <ele>737.40002441406</ele>
        <time>2018-03-25T13:36:26.000Z</time>
      </trkpt>
      <trkpt lat="44.26302" lon="2.43754">
        <ele>738</ele>
        <time>2018-03-25T13:36:33.000Z</time>
      </trkpt>
      <trkpt lat="44.26291" lon="2.43742">
        <ele>738.59997558594</ele>
        <time>2018-03-25T13:36:39.000Z</time>
      </trkpt>
      <trkpt lat="44.26277" lon="2.43727">
        <ele>739.40002441406</ele>
        <time>2018-03-25T13:36:46.000Z</time>
      </trkpt>
      <trkpt lat="44.26265" lon="2.43717">
        <ele>741</ele>
        <time>2018-03-25T13:36:52.000Z</time>
      </trkpt>
      <trkpt lat="44.26254" lon="2.43705">
        <ele>742.59997558594</ele>
        <time>2018-03-25T13:36:58.000Z</time>
      </trkpt>
      <trkpt lat="44.26252" lon="2.43693">
        <ele>743.20001220703</ele>
        <time>2018-03-25T13:37:02.000Z</time>
      </trkpt>
      <trkpt lat="44.26254" lon="2.43672">
        <ele>743.79998779297</ele>
        <time>2018-03-25T13:37:08.000Z</time>
      </trkpt>
      <trkpt lat="44.2625" lon="2.4365">
        <ele>744.59997558594</ele>
        <time>2018-03-25T13:37:14.000Z</time>
      </trkpt>
      <trkpt lat="44.26246" lon="2.43612">
        <ele>746.40002441406</ele>
        <time>2018-03-25T13:37:25.000Z</time>
      </trkpt>
      <trkpt lat="44.26244" lon="2.43578">
        <ele>747.79998779297</ele>
        <time>2018-03-25T13:37:35.000Z</time>
      </trkpt>
      <trkpt lat="44.26245" lon="2.43547">
        <ele>748.40002441406</ele>
        <time>2018-03-25T13:37:44.000Z</time>
      </trkpt>
      <trkpt lat="44.26247" lon="2.43519">
        <ele>748.40002441406</ele>
        <time>2018-03-25T13:37:52.000Z</time>
      </trkpt>
      <trkpt lat="44.26252" lon="2.43483">
        <ele>747.79998779297</ele>
        <time>2018-03-25T13:38:00.000Z</time>
      </trkpt>
      <trkpt lat="44.26262" lon="2.43433">
        <ele>746.59997558594</ele>
        <time>2018-03-25T13:38:09.000Z</time>
      </trkpt>
      <trkpt lat="44.26267" lon="2.43392">
        <ele>745.40002441406</ele>
        <time>2018-03-25T13:38:15.000Z</time>
      </trkpt>
      <trkpt lat="44.26275" lon="2.43336">
        <ele>744.20001220703</ele>
        <time>2018-03-25T13:38:23.000Z</time>
      </trkpt>
      <trkpt lat="44.26276" lon="2.43329">
        <ele>743.79998779297</ele>
        <time>2018-03-25T13:38:24.000Z</time>
      </trkpt>
      <trkpt lat="44.26277" lon="2.43271">
        <ele>741.59997558594</ele>
        <time>2018-03-25T13:38:31.000Z</time>
      </trkpt>
      <trkpt lat="44.26279" lon="2.432">
        <ele>739.20001220703</ele>
        <time>2018-03-25T13:38:39.000Z</time>
      </trkpt>
      <trkpt lat="44.26292" lon="2.43155">
        <ele>737.40002441406</ele>
        <time>2018-03-25T13:38:44.000Z</time>
      </trkpt>
      <trkpt lat="44.26311" lon="2.43115">
        <ele>734.20001220703</ele>
        <time>2018-03-25T13:38:49.000Z</time>
      </trkpt>
      <trkpt lat="44.26317" lon="2.43066">
        <ele>730.40002441406</ele>
        <time>2018-03-25T13:38:54.000Z</time>
      </trkpt>
      <trkpt lat="44.26308" lon="2.43013">
        <ele>726.40002441406</ele>
        <time>2018-03-25T13:38:59.000Z</time>
      </trkpt>
      <trkpt lat="44.26295" lon="2.42983">
        <ele>723.59997558594</ele>
        <time>2018-03-25T13:39:02.000Z</time>
      </trkpt>
      <trkpt lat="44.26278" lon="2.42957">
        <ele>720.79998779297</ele>
        <time>2018-03-25T13:39:05.000Z</time>
      </trkpt>
      <trkpt lat="44.2625" lon="2.42931">
        <ele>715.40002441406</ele>
        <time>2018-03-25T13:39:09.000Z</time>
      </trkpt>
      <trkpt lat="44.26243" lon="2.42928">
        <ele>714.20001220703</ele>
        <time>2018-03-25T13:39:10.000Z</time>
      </trkpt>
      <trkpt lat="44.26235" lon="2.42915">
        <ele>711.20001220703</ele>
        <time>2018-03-25T13:39:13.000Z</time>
      </trkpt>
      <trkpt lat="44.26248" lon="2.42902">
        <ele>708.20001220703</ele>
        <time>2018-03-25T13:39:16.000Z</time>
      </trkpt>
      <trkpt lat="44.26295" lon="2.42881">
        <ele>703.20001220703</ele>
        <time>2018-03-25T13:39:22.000Z</time>
      </trkpt>
      <trkpt lat="44.26314" lon="2.42863">
        <ele>700.79998779297</ele>
        <time>2018-03-25T13:39:26.000Z</time>
      </trkpt>
      <trkpt lat="44.26324" lon="2.42865">
        <ele>699.40002441406</ele>
        <time>2018-03-25T13:39:30.000Z</time>
      </trkpt>
      <trkpt lat="44.26335" lon="2.42875">
        <ele>699.40002441406</ele>
        <time>2018-03-25T13:39:36.000Z</time>
      </trkpt>
      <trkpt lat="44.26344" lon="2.42881">
        <ele>702.40002441406</ele>
        <time>2018-03-25T13:39:41.000Z</time>
      </trkpt>
      <trkpt lat="44.26356" lon="2.42888">
        <ele>705.79998779297</ele>
        <time>2018-03-25T13:39:48.000Z</time>
      </trkpt>
      <trkpt lat="44.26366" lon="2.42891">
        <ele>709</ele>
        <time>2018-03-25T13:39:54.000Z</time>
      </trkpt>
      <trkpt lat="44.26374" lon="2.42893">
        <ele>711.20001220703</ele>
        <time>2018-03-25T13:39:59.000Z</time>
      </trkpt>
      <trkpt lat="44.26376" lon="2.42892">
        <ele>712.40002441406</ele>
        <time>2018-03-25T13:40:00.000Z</time>
      </trkpt>
      <trkpt lat="44.26379" lon="2.42892">
        <ele>714.20001220703</ele>
        <time>2018-03-25T13:40:02.000Z</time>
      </trkpt>
      <trkpt lat="44.26393" lon="2.42892">
        <ele>719.20001220703</ele>
        <time>2018-03-25T13:40:09.000Z</time>
      </trkpt>
      <trkpt lat="44.26407" lon="2.42895">
        <ele>721.40002441406</ele>
        <time>2018-03-25T13:40:16.000Z</time>
      </trkpt>
      <trkpt lat="44.26413" lon="2.42897">
        <ele>720.59997558594</ele>
        <time>2018-03-25T13:40:19.000Z</time>
      </trkpt>
      <trkpt lat="44.26422" lon="2.42895">
        <ele>720.40002441406</ele>
        <time>2018-03-25T13:40:24.000Z</time>
      </trkpt>
      <trkpt lat="44.26437" lon="2.42895">
        <ele>722.20001220703</ele>
        <time>2018-03-25T13:40:31.000Z</time>
      </trkpt>
      <trkpt lat="44.26448" lon="2.42895">
        <ele>722.40002441406</ele>
        <time>2018-03-25T13:40:35.000Z</time>
      </trkpt>
      <trkpt lat="44.26463" lon="2.42901">
        <ele>726.79998779297</ele>
        <time>2018-03-25T13:40:41.000Z</time>
      </trkpt>
      <trkpt lat="44.26476" lon="2.4291">
        <ele>728.40002441406</ele>
        <time>2018-03-25T13:40:47.000Z</time>
      </trkpt>
      <trkpt lat="44.26491" lon="2.42918">
        <ele>729.79998779297</ele>
        <time>2018-03-25T13:40:54.000Z</time>
      </trkpt>
      <trkpt lat="44.26503" lon="2.42923">
        <ele>729.59997558594</ele>
        <time>2018-03-25T13:40:58.000Z</time>
      </trkpt>
      <trkpt lat="44.26513" lon="2.42926">
        <ele>727.79998779297</ele>
        <time>2018-03-25T13:41:01.000Z</time>
      </trkpt>
      <trkpt lat="44.26532" lon="2.42939">
        <ele>729.59997558594</ele>
        <time>2018-03-25T13:41:07.000Z</time>
      </trkpt>
      <trkpt lat="44.26541" lon="2.42947">
        <ele>730.59997558594</ele>
        <time>2018-03-25T13:41:11.000Z</time>
      </trkpt>
      <trkpt lat="44.26552" lon="2.42959">
        <ele>732.20001220703</ele>
        <time>2018-03-25T13:41:16.000Z</time>
      </trkpt>
      <trkpt lat="44.26564" lon="2.42973">
        <ele>732.59997558594</ele>
        <time>2018-03-25T13:41:21.000Z</time>
      </trkpt>
      <trkpt lat="44.26575" lon="2.42986">
        <ele>732.79998779297</ele>
        <time>2018-03-25T13:41:26.000Z</time>
      </trkpt>
      <trkpt lat="44.26582" lon="2.42996">
        <ele>733.40002441406</ele>
        <time>2018-03-25T13:41:30.000Z</time>
      </trkpt>
      <trkpt lat="44.26593" lon="2.43007">
        <ele>734.20001220703</ele>
        <time>2018-03-25T13:41:36.000Z</time>
      </trkpt>
      <trkpt lat="44.2661" lon="2.43015">
        <ele>733.40002441406</ele>
        <time>2018-03-25T13:41:43.000Z</time>
      </trkpt>
      <trkpt lat="44.26623" lon="2.43018">
        <ele>731.40002441406</ele>
        <time>2018-03-25T13:41:47.000Z</time>
      </trkpt>
      <trkpt lat="44.26647" lon="2.43019">
        <ele>726.20001220703</ele>
        <time>2018-03-25T13:41:52.000Z</time>
      </trkpt>
      <trkpt lat="44.26667" lon="2.43013">
        <ele>723.59997558594</ele>
        <time>2018-03-25T13:41:57.000Z</time>
      </trkpt>
      <trkpt lat="44.26679" lon="2.43007">
        <ele>719.79998779297</ele>
        <time>2018-03-25T13:42:01.000Z</time>
      </trkpt>
      <trkpt lat="44.26696" lon="2.43002">
        <ele>716.79998779297</ele>
        <time>2018-03-25T13:42:06.000Z</time>
      </trkpt>
      <trkpt lat="44.26705" lon="2.42984">
        <ele>714.20001220703</ele>
        <time>2018-03-25T13:42:10.000Z</time>
      </trkpt>
      <trkpt lat="44.26709" lon="2.42973">
        <ele>712.79998779297</ele>
        <time>2018-03-25T13:42:12.000Z</time>
      </trkpt>
      <trkpt lat="44.26724" lon="2.4296">
        <ele>711.20001220703</ele>
        <time>2018-03-25T13:42:16.000Z</time>
      </trkpt>
      <trkpt lat="44.26736" lon="2.42945">
        <ele>713.20001220703</ele>
        <time>2018-03-25T13:42:21.000Z</time>
      </trkpt>
      <trkpt lat="44.26741" lon="2.42943">
        <ele>714</ele>
        <time>2018-03-25T13:42:23.000Z</time>
      </trkpt>
      <trkpt lat="44.26761" lon="2.42945">
        <ele>715</ele>
        <time>2018-03-25T13:42:30.000Z</time>
      </trkpt>
      <trkpt lat="44.26786" lon="2.42947">
        <ele>716.40002441406</ele>
        <time>2018-03-25T13:42:38.000Z</time>
      </trkpt>
      <trkpt lat="44.26808" lon="2.42944">
        <ele>718.40002441406</ele>
        <time>2018-03-25T13:42:46.000Z</time>
      </trkpt>
      <trkpt lat="44.26829" lon="2.42934">
        <ele>718.20001220703</ele>
        <time>2018-03-25T13:42:54.000Z</time>
      </trkpt>
      <trkpt lat="44.26835" lon="2.42904">
        <ele>718.59997558594</ele>
        <time>2018-03-25T13:43:02.000Z</time>
      </trkpt>
      <trkpt lat="44.26846" lon="2.42897">
        <ele>718.20001220703</ele>
        <time>2018-03-25T13:43:07.000Z</time>
      </trkpt>
      <trkpt lat="44.26867" lon="2.42897">
        <ele>719</ele>
        <time>2018-03-25T13:43:14.000Z</time>
      </trkpt>
      <trkpt lat="44.26889" lon="2.42899">
        <ele>720.79998779297</ele>
        <time>2018-03-25T13:43:22.000Z</time>
      </trkpt>
      <trkpt lat="44.26904" lon="2.42909">
        <ele>721.59997558594</ele>
        <time>2018-03-25T13:43:29.000Z</time>
      </trkpt>
      <trkpt lat="44.26922" lon="2.42927">
        <ele>721.40002441406</ele>
        <time>2018-03-25T13:43:37.000Z</time>
      </trkpt>
      <trkpt lat="44.2694" lon="2.42946">
        <ele>722.20001220703</ele>
        <time>2018-03-25T13:43:45.000Z</time>
      </trkpt>
      <trkpt lat="44.26954" lon="2.42959">
        <ele>722.20001220703</ele>
        <time>2018-03-25T13:43:53.000Z</time>
      </trkpt>
      <trkpt lat="44.26964" lon="2.42971">
        <ele>723.59997558594</ele>
        <time>2018-03-25T13:43:59.000Z</time>
      </trkpt>
      <trkpt lat="44.26975" lon="2.4298">
        <ele>725.59997558594</ele>
        <time>2018-03-25T13:44:05.000Z</time>
      </trkpt>
      <trkpt lat="44.26981" lon="2.42987">
        <ele>727.79998779297</ele>
        <time>2018-03-25T13:44:10.000Z</time>
      </trkpt>
      <trkpt lat="44.26992" lon="2.43">
        <ele>730.59997558594</ele>
        <time>2018-03-25T13:44:17.000Z</time>
      </trkpt>
      <trkpt lat="44.27003" lon="2.43012">
        <ele>733</ele>
        <time>2018-03-25T13:44:24.000Z</time>
      </trkpt>
      <trkpt lat="44.2702" lon="2.43032">
        <ele>732</ele>
        <time>2018-03-25T13:44:32.000Z</time>
      </trkpt>
      <trkpt lat="44.27037" lon="2.43053">
        <ele>732.59997558594</ele>
        <time>2018-03-25T13:44:39.000Z</time>
      </trkpt>
      <trkpt lat="44.2705" lon="2.4307">
        <ele>735.20001220703</ele>
        <time>2018-03-25T13:44:46.000Z</time>
      </trkpt>
      <trkpt lat="44.27065" lon="2.43083">
        <ele>737.20001220703</ele>
        <time>2018-03-25T13:44:53.000Z</time>
      </trkpt>
      <trkpt lat="44.27086" lon="2.43095">
        <ele>740.20001220703</ele>
        <time>2018-03-25T13:45:01.000Z</time>
      </trkpt>
      <trkpt lat="44.27106" lon="2.43101">
        <ele>741.79998779297</ele>
        <time>2018-03-25T13:45:09.000Z</time>
      </trkpt>
      <trkpt lat="44.2713" lon="2.43107">
        <ele>741.59997558594</ele>
        <time>2018-03-25T13:45:18.000Z</time>
      </trkpt>
      <trkpt lat="44.27132" lon="2.43106">
        <ele>741.59997558594</ele>
        <time>2018-03-25T13:45:19.000Z</time>
      </trkpt>
      <trkpt lat="44.27143" lon="2.43091">
        <ele>742.20001220703</ele>
        <time>2018-03-25T13:45:25.000Z</time>
      </trkpt>
      <trkpt lat="44.27153" lon="2.4308">
        <ele>743</ele>
        <time>2018-03-25T13:45:30.000Z</time>
      </trkpt>
      <trkpt lat="44.27173" lon="2.43075">
        <ele>743.59997558594</ele>
        <time>2018-03-25T13:45:39.000Z</time>
      </trkpt>
      <trkpt lat="44.27187" lon="2.43082">
        <ele>742.59997558594</ele>
        <time>2018-03-25T13:45:44.000Z</time>
      </trkpt>
      <trkpt lat="44.27196" lon="2.43097">
        <ele>742.40002441406</ele>
        <time>2018-03-25T13:45:49.000Z</time>
      </trkpt>
      <trkpt lat="44.27204" lon="2.43116">
        <ele>744</ele>
        <time>2018-03-25T13:45:56.000Z</time>
      </trkpt>
      <trkpt lat="44.27211" lon="2.43132">
        <ele>746</ele>
        <time>2018-03-25T13:46:03.000Z</time>
      </trkpt>
      <trkpt lat="44.27216" lon="2.43149">
        <ele>746.20001220703</ele>
        <time>2018-03-25T13:46:10.000Z</time>
      </trkpt>
      <trkpt lat="44.27219" lon="2.43169">
        <ele>745</ele>
        <time>2018-03-25T13:46:16.000Z</time>
      </trkpt>
      <trkpt lat="44.2722" lon="2.43191">
        <ele>743</ele>
        <time>2018-03-25T13:46:20.000Z</time>
      </trkpt>
      <trkpt lat="44.27225" lon="2.43214">
        <ele>742.40002441406</ele>
        <time>2018-03-25T13:46:25.000Z</time>
      </trkpt>
      <trkpt lat="44.2723" lon="2.43231">
        <ele>744</ele>
        <time>2018-03-25T13:46:31.000Z</time>
      </trkpt>
      <trkpt lat="44.27237" lon="2.43251">
        <ele>746</ele>
        <time>2018-03-25T13:46:38.000Z</time>
      </trkpt>
      <trkpt lat="44.27243" lon="2.43269">
        <ele>748</ele>
        <time>2018-03-25T13:46:45.000Z</time>
      </trkpt>
      <trkpt lat="44.27245" lon="2.43287">
        <ele>749.79998779297</ele>
        <time>2018-03-25T13:46:51.000Z</time>
      </trkpt>
      <trkpt lat="44.27247" lon="2.43309">
        <ele>752.59997558594</ele>
        <time>2018-03-25T13:46:58.000Z</time>
      </trkpt>
      <trkpt lat="44.27249" lon="2.43328">
        <ele>755.59997558594</ele>
        <time>2018-03-25T13:47:05.000Z</time>
      </trkpt>
      <trkpt lat="44.27248" lon="2.43346">
        <ele>756.79998779297</ele>
        <time>2018-03-25T13:47:12.000Z</time>
      </trkpt>
      <trkpt lat="44.27248" lon="2.43371">
        <ele>758.79998779297</ele>
        <time>2018-03-25T13:47:21.000Z</time>
      </trkpt>
      <trkpt lat="44.27247" lon="2.43383">
        <ele>759.59997558594</ele>
        <time>2018-03-25T13:47:27.000Z</time>
      </trkpt>
      <trkpt lat="44.27245" lon="2.43388">
        <ele>760.40002441406</ele>
        <time>2018-03-25T13:47:30.000Z</time>
      </trkpt>
      <trkpt lat="44.27243" lon="2.43399">
        <ele>761</ele>
        <time>2018-03-25T13:47:35.000Z</time>
      </trkpt>
      <trkpt lat="44.27237" lon="2.43419">
        <ele>762</ele>
        <time>2018-03-25T13:47:44.000Z</time>
      </trkpt>
      <trkpt lat="44.27234" lon="2.43434">
        <ele>763.40002441406</ele>
        <time>2018-03-25T13:47:50.000Z</time>
      </trkpt>
      <trkpt lat="44.2723" lon="2.43448">
        <ele>764.59997558594</ele>
        <time>2018-03-25T13:47:56.000Z</time>
      </trkpt>
      <trkpt lat="44.27225" lon="2.43468">
        <ele>766</ele>
        <time>2018-03-25T13:48:05.000Z</time>
      </trkpt>
      <trkpt lat="44.27222" lon="2.43486">
        <ele>766.40002441406</ele>
        <time>2018-03-25T13:48:13.000Z</time>
      </trkpt>
      <trkpt lat="44.27217" lon="2.4351">
        <ele>766.40002441406</ele>
        <time>2018-03-25T13:48:22.000Z</time>
      </trkpt>
      <trkpt lat="44.27213" lon="2.43529">
        <ele>766.79998779297</ele>
        <time>2018-03-25T13:48:29.000Z</time>
      </trkpt>
      <trkpt lat="44.27221" lon="2.43536">
        <ele>767.20001220703</ele>
        <time>2018-03-25T13:48:33.000Z</time>
      </trkpt>
      <trkpt lat="44.27243" lon="2.43545">
        <ele>768.40002441406</ele>
        <time>2018-03-25T13:48:40.000Z</time>
      </trkpt>
      <trkpt lat="44.2726" lon="2.43554">
        <ele>770</ele>
        <time>2018-03-25T13:48:47.000Z</time>
      </trkpt>
      <trkpt lat="44.27284" lon="2.43561">
        <ele>772.20001220703</ele>
        <time>2018-03-25T13:48:57.000Z</time>
      </trkpt>
      <trkpt lat="44.27301" lon="2.43559">
        <ele>773</ele>
        <time>2018-03-25T13:49:04.000Z</time>
      </trkpt>
      <trkpt lat="44.27316" lon="2.43562">
        <ele>774</ele>
        <time>2018-03-25T13:49:11.000Z</time>
      </trkpt>
      <trkpt lat="44.27338" lon="2.43567">
        <ele>775.40002441406</ele>
        <time>2018-03-25T13:49:21.000Z</time>
      </trkpt>
      <trkpt lat="44.27349" lon="2.43569">
        <ele>775.79998779297</ele>
        <time>2018-03-25T13:49:27.000Z</time>
      </trkpt>
      <trkpt lat="44.27363" lon="2.43567">
        <ele>776.40002441406</ele>
        <time>2018-03-25T13:49:33.000Z</time>
      </trkpt>
      <trkpt lat="44.27383" lon="2.43564">
        <ele>777.20001220703</ele>
        <time>2018-03-25T13:49:41.000Z</time>
      </trkpt>
      <trkpt lat="44.27411" lon="2.43563">
        <ele>777</ele>
        <time>2018-03-25T13:49:52.000Z</time>
      </trkpt>
      <trkpt lat="44.27423" lon="2.43575">
        <ele>777</ele>
        <time>2018-03-25T13:49:58.000Z</time>
      </trkpt>
      <trkpt lat="44.27436" lon="2.43603">
        <ele>776.79998779297</ele>
        <time>2018-03-25T13:50:07.000Z</time>
      </trkpt>
      <trkpt lat="44.27446" lon="2.43629">
        <ele>776.59997558594</ele>
        <time>2018-03-25T13:50:13.000Z</time>
      </trkpt>
      <trkpt lat="44.27438" lon="2.43662">
        <ele>775</ele>
        <time>2018-03-25T13:50:19.000Z</time>
      </trkpt>
      <trkpt lat="44.27422" lon="2.43675">
        <ele>772.40002441406</ele>
        <time>2018-03-25T13:50:23.000Z</time>
      </trkpt>
      <trkpt lat="44.27406" lon="2.43674">
        <ele>770</ele>
        <time>2018-03-25T13:50:26.000Z</time>
      </trkpt>
      <trkpt lat="44.27387" lon="2.43668">
        <ele>768</ele>
        <time>2018-03-25T13:50:30.000Z</time>
      </trkpt>
      <trkpt lat="44.2738" lon="2.43682">
        <ele>766.20001220703</ele>
        <time>2018-03-25T13:50:34.000Z</time>
      </trkpt>
      <trkpt lat="44.27378" lon="2.43695">
        <ele>765.40002441406</ele>
        <time>2018-03-25T13:50:36.000Z</time>
      </trkpt>
      <trkpt lat="44.27379" lon="2.43728">
        <ele>763</ele>
        <time>2018-03-25T13:50:41.000Z</time>
      </trkpt>
      <trkpt lat="44.2739" lon="2.43738">
        <ele>763.79998779297</ele>
        <time>2018-03-25T13:50:44.000Z</time>
      </trkpt>
      <trkpt lat="44.27393" lon="2.4374">
        <ele>764</ele>
        <time>2018-03-25T13:50:45.000Z</time>
      </trkpt>
      <trkpt lat="44.27411" lon="2.43749">
        <ele>765</ele>
        <time>2018-03-25T13:50:53.000Z</time>
      </trkpt>
      <trkpt lat="44.27427" lon="2.43758">
        <ele>765.40002441406</ele>
        <time>2018-03-25T13:51:01.000Z</time>
      </trkpt>
      <trkpt lat="44.27428" lon="2.43772">
        <ele>765.20001220703</ele>
        <time>2018-03-25T13:51:06.000Z</time>
      </trkpt>
      <trkpt lat="44.27419" lon="2.43796">
        <ele>766.40002441406</ele>
        <time>2018-03-25T13:51:14.000Z</time>
      </trkpt>
      <trkpt lat="44.27408" lon="2.43819">
        <ele>768</ele>
        <time>2018-03-25T13:51:22.000Z</time>
      </trkpt>
      <trkpt lat="44.27396" lon="2.4384">
        <ele>770.40002441406</ele>
        <time>2018-03-25T13:51:31.000Z</time>
      </trkpt>
      <trkpt lat="44.27388" lon="2.43847">
        <ele>770.40002441406</ele>
        <time>2018-03-25T13:51:37.000Z</time>
      </trkpt>
      <trkpt lat="44.2738" lon="2.43851">
        <ele>770</ele>
        <time>2018-03-25T13:51:41.000Z</time>
      </trkpt>
      <trkpt lat="44.27377" lon="2.4386">
        <ele>770.20001220703</ele>
        <time>2018-03-25T13:51:45.000Z</time>
      </trkpt>
      <trkpt lat="44.27378" lon="2.43868">
        <ele>771.59997558594</ele>
        <time>2018-03-25T13:51:48.000Z</time>
      </trkpt>
      <trkpt lat="44.27374" lon="2.43879">
        <ele>773.59997558594</ele>
        <time>2018-03-25T13:51:55.000Z</time>
      </trkpt>
      <trkpt lat="44.27373" lon="2.4388">
        <ele>774</ele>
        <time>2018-03-25T13:51:59.000Z</time>
      </trkpt>
      <trkpt lat="44.27375" lon="2.43877">
        <ele>774</ele>
        <time>2018-03-25T13:52:05.000Z</time>
      </trkpt>
      <trkpt lat="44.27376" lon="2.43876">
        <ele>774.40002441406</ele>
        <time>2018-03-25T13:54:05.000Z</time>
      </trkpt>
      <trkpt lat="44.27375" lon="2.43877">
        <ele>774.20001220703</ele>
        <time>2018-03-25T13:54:13.000Z</time>
      </trkpt>
      <trkpt lat="44.27374" lon="2.43884">
        <ele>774.40002441406</ele>
        <time>2018-03-25T13:54:32.000Z</time>
      </trkpt>
      <trkpt lat="44.27371" lon="2.43882">
        <ele>774</ele>
        <time>2018-03-25T13:54:36.000Z</time>
      </trkpt>
      <trkpt lat="44.27377" lon="2.43878">
        <ele>774.20001220703</ele>
        <time>2018-03-25T13:54:40.000Z</time>
      </trkpt>
      <trkpt lat="44.2738" lon="2.43884">
        <ele>775.20001220703</ele>
        <time>2018-03-25T13:54:43.000Z</time>
      </trkpt>
      <trkpt lat="44.27383" lon="2.439">
        <ele>778.40002441406</ele>
        <time>2018-03-25T13:54:50.000Z</time>
      </trkpt>
      <trkpt lat="44.27384" lon="2.43917">
        <ele>781.59997558594</ele>
        <time>2018-03-25T13:54:57.000Z</time>
      </trkpt>
      <trkpt lat="44.27386" lon="2.43935">
        <ele>785.20001220703</ele>
        <time>2018-03-25T13:55:05.000Z</time>
      </trkpt>
      <trkpt lat="44.27388" lon="2.43946">
        <ele>786.40002441406</ele>
        <time>2018-03-25T13:55:10.000Z</time>
      </trkpt>
      <trkpt lat="44.27384" lon="2.43955">
        <ele>786.20001220703</ele>
        <time>2018-03-25T13:55:14.000Z</time>
      </trkpt>
      <trkpt lat="44.27364" lon="2.43977">
        <ele>785.20001220703</ele>
        <time>2018-03-25T13:55:22.000Z</time>
      </trkpt>
      <trkpt lat="44.27346" lon="2.43994">
        <ele>785.40002441406</ele>
        <time>2018-03-25T13:55:29.000Z</time>
      </trkpt>
      <trkpt lat="44.27326" lon="2.44015">
        <ele>786.40002441406</ele>
        <time>2018-03-25T13:55:38.000Z</time>
      </trkpt>
      <trkpt lat="44.27303" lon="2.44042">
        <ele>787.20001220703</ele>
        <time>2018-03-25T13:55:49.000Z</time>
      </trkpt>
      <trkpt lat="44.27285" lon="2.44054">
        <ele>786</ele>
        <time>2018-03-25T13:55:56.000Z</time>
      </trkpt>
      <trkpt lat="44.27265" lon="2.44058">
        <ele>784.40002441406</ele>
        <time>2018-03-25T13:56:02.000Z</time>
      </trkpt>
      <trkpt lat="44.27261" lon="2.44071">
        <ele>785</ele>
        <time>2018-03-25T13:56:06.000Z</time>
      </trkpt>
      <trkpt lat="44.27267" lon="2.44098">
        <ele>787</ele>
        <time>2018-03-25T13:56:14.000Z</time>
      </trkpt>
      <trkpt lat="44.27273" lon="2.44134">
        <ele>789.20001220703</ele>
        <time>2018-03-25T13:56:25.000Z</time>
      </trkpt>
      <trkpt lat="44.27277" lon="2.44163">
        <ele>791</ele>
        <time>2018-03-25T13:56:34.000Z</time>
      </trkpt>
      <trkpt lat="44.27282" lon="2.44184">
        <ele>792</ele>
        <time>2018-03-25T13:56:41.000Z</time>
      </trkpt>
      <trkpt lat="44.27295" lon="2.44189">
        <ele>793.20001220703</ele>
        <time>2018-03-25T13:56:46.000Z</time>
      </trkpt>
      <trkpt lat="44.27322" lon="2.44193">
        <ele>795.20001220703</ele>
        <time>2018-03-25T13:56:56.000Z</time>
      </trkpt>
      <trkpt lat="44.27348" lon="2.44202">
        <ele>797.40002441406</ele>
        <time>2018-03-25T13:57:06.000Z</time>
      </trkpt>
      <trkpt lat="44.2737" lon="2.44213">
        <ele>799.59997558594</ele>
        <time>2018-03-25T13:57:15.000Z</time>
      </trkpt>
      <trkpt lat="44.27395" lon="2.44225">
        <ele>802.79998779297</ele>
        <time>2018-03-25T13:57:25.000Z</time>
      </trkpt>
      <trkpt lat="44.27413" lon="2.44235">
        <ele>804.59997558594</ele>
        <time>2018-03-25T13:57:32.000Z</time>
      </trkpt>
      <trkpt lat="44.27438" lon="2.44249">
        <ele>806</ele>
        <time>2018-03-25T13:57:42.000Z</time>
      </trkpt>
      <trkpt lat="44.27461" lon="2.44257">
        <ele>806.59997558594</ele>
        <time>2018-03-25T13:57:51.000Z</time>
      </trkpt>
      <trkpt lat="44.27486" lon="2.44266">
        <ele>807</ele>
        <time>2018-03-25T13:58:01.000Z</time>
      </trkpt>
      <trkpt lat="44.27505" lon="2.44263">
        <ele>807</ele>
        <time>2018-03-25T13:58:08.000Z</time>
      </trkpt>
      <trkpt lat="44.2752" lon="2.44254">
        <ele>806.59997558594</ele>
        <time>2018-03-25T13:58:14.000Z</time>
      </trkpt>
      <trkpt lat="44.27544" lon="2.44246">
        <ele>806</ele>
        <time>2018-03-25T13:58:22.000Z</time>
      </trkpt>
      <trkpt lat="44.27569" lon="2.44229">
        <ele>804.59997558594</ele>
        <time>2018-03-25T13:58:30.000Z</time>
      </trkpt>
      <trkpt lat="44.27594" lon="2.44211">
        <ele>804</ele>
        <time>2018-03-25T13:58:38.000Z</time>
      </trkpt>
      <trkpt lat="44.27617" lon="2.44198">
        <ele>803.59997558594</ele>
        <time>2018-03-25T13:58:45.000Z</time>
      </trkpt>
      <trkpt lat="44.27644" lon="2.44174">
        <ele>803</ele>
        <time>2018-03-25T13:58:54.000Z</time>
      </trkpt>
      <trkpt lat="44.27663" lon="2.44157">
        <ele>802.79998779297</ele>
        <time>2018-03-25T13:59:01.000Z</time>
      </trkpt>
      <trkpt lat="44.27684" lon="2.4415">
        <ele>802.59997558594</ele>
        <time>2018-03-25T13:59:07.000Z</time>
      </trkpt>
      <trkpt lat="44.27698" lon="2.44155">
        <ele>803.20001220703</ele>
        <time>2018-03-25T13:59:12.000Z</time>
      </trkpt>
      <trkpt lat="44.27701" lon="2.44155">
        <ele>803.40002441406</ele>
        <time>2018-03-25T13:59:13.000Z</time>
      </trkpt>
      <trkpt lat="44.27707" lon="2.44146">
        <ele>803.59997558594</ele>
        <time>2018-03-25T13:59:17.000Z</time>
      </trkpt>
      <trkpt lat="44.27706" lon="2.44099">
        <ele>804.40002441406</ele>
        <time>2018-03-25T13:59:29.000Z</time>
      </trkpt>
      <trkpt lat="44.27706" lon="2.44087">
        <ele>804.40002441406</ele>
        <time>2018-03-25T13:59:33.000Z</time>
      </trkpt>
      <trkpt lat="44.27707" lon="2.44085">
        <ele>804</ele>
        <time>2018-03-25T13:59:39.000Z</time>
      </trkpt>
      <trkpt lat="44.27715" lon="2.44083">
        <ele>804</ele>
        <time>2018-03-25T13:59:44.000Z</time>
      </trkpt>
      <trkpt lat="44.27716" lon="2.44089">
        <ele>804</ele>
        <time>2018-03-25T13:59:46.000Z</time>
      </trkpt>
      <trkpt lat="44.27717" lon="2.44121">
        <ele>804.20001220703</ele>
        <time>2018-03-25T13:59:54.000Z</time>
      </trkpt>
      <trkpt lat="44.27715" lon="2.44167">
        <ele>803</ele>
        <time>2018-03-25T14:00:03.000Z</time>
      </trkpt>
      <trkpt lat="44.27718" lon="2.4421">
        <ele>801.59997558594</ele>
        <time>2018-03-25T14:00:10.000Z</time>
      </trkpt>
      <trkpt lat="44.27721" lon="2.44258">
        <ele>799.59997558594</ele>
        <time>2018-03-25T14:00:16.000Z</time>
      </trkpt>
      <trkpt lat="44.27723" lon="2.44323">
        <ele>797.40002441406</ele>
        <time>2018-03-25T14:00:23.000Z</time>
      </trkpt>
      <trkpt lat="44.2772" lon="2.44389">
        <ele>795.20001220703</ele>
        <time>2018-03-25T14:00:31.000Z</time>
      </trkpt>
      <trkpt lat="44.27732" lon="2.44405">
        <ele>794</ele>
        <time>2018-03-25T14:00:35.000Z</time>
      </trkpt>
      <trkpt lat="44.27743" lon="2.44405">
        <ele>794.40002441406</ele>
        <time>2018-03-25T14:00:37.000Z</time>
      </trkpt>
      <trkpt lat="44.27779" lon="2.44399">
        <ele>794.40002441406</ele>
        <time>2018-03-25T14:00:47.000Z</time>
      </trkpt>
      <trkpt lat="44.27805" lon="2.44394">
        <ele>792.59997558594</ele>
        <time>2018-03-25T14:00:54.000Z</time>
      </trkpt>
      <trkpt lat="44.27814" lon="2.44391">
        <ele>791.59997558594</ele>
        <time>2018-03-25T14:00:56.000Z</time>
      </trkpt>
      <trkpt lat="44.2785" lon="2.4439">
        <ele>786.20001220703</ele>
        <time>2018-03-25T14:01:01.000Z</time>
      </trkpt>
      <trkpt lat="44.27898" lon="2.4439">
        <ele>781.20001220703</ele>
        <time>2018-03-25T14:01:06.000Z</time>
      </trkpt>
      <trkpt lat="44.27954" lon="2.44389">
        <ele>776</ele>
        <time>2018-03-25T14:01:12.000Z</time>
      </trkpt>
      <trkpt lat="44.27979" lon="2.44388">
        <ele>773.79998779297</ele>
        <time>2018-03-25T14:01:16.000Z</time>
      </trkpt>
      <trkpt lat="44.27987" lon="2.44389">
        <ele>773.20001220703</ele>
        <time>2018-03-25T14:01:18.000Z</time>
      </trkpt>
      <trkpt lat="44.27991" lon="2.44378">
        <ele>772.79998779297</ele>
        <time>2018-03-25T14:01:22.000Z</time>
      </trkpt>
      <trkpt lat="44.27991" lon="2.44374">
        <ele>772.59997558594</ele>
        <time>2018-03-25T14:01:23.000Z</time>
      </trkpt>
      <trkpt lat="44.2799" lon="2.4433">
        <ele>771.59997558594</ele>
        <time>2018-03-25T14:01:31.000Z</time>
      </trkpt>
      <trkpt lat="44.27989" lon="2.44274">
        <ele>767.20001220703</ele>
        <time>2018-03-25T14:01:39.000Z</time>
      </trkpt>
      <trkpt lat="44.2799" lon="2.4425">
        <ele>764.40002441406</ele>
        <time>2018-03-25T14:01:41.000Z</time>
      </trkpt>
      <trkpt lat="44.28004" lon="2.44211">
        <ele>764.20001220703</ele>
        <time>2018-03-25T14:01:45.000Z</time>
      </trkpt>
      <trkpt lat="44.28014" lon="2.44189">
        <ele>766</ele>
        <time>2018-03-25T14:01:49.000Z</time>
      </trkpt>
      <trkpt lat="44.28024" lon="2.44167">
        <ele>768.20001220703</ele>
        <time>2018-03-25T14:01:55.000Z</time>
      </trkpt>
      <trkpt lat="44.28035" lon="2.44153">
        <ele>768.40002441406</ele>
        <time>2018-03-25T14:02:01.000Z</time>
      </trkpt>
      <trkpt lat="44.28062" lon="2.44139">
        <ele>765.20001220703</ele>
        <time>2018-03-25T14:02:07.000Z</time>
      </trkpt>
      <trkpt lat="44.28072" lon="2.44132">
        <ele>764.20001220703</ele>
        <time>2018-03-25T14:02:09.000Z</time>
      </trkpt>
      <trkpt lat="44.28103" lon="2.44095">
        <ele>759.40002441406</ele>
        <time>2018-03-25T14:02:16.000Z</time>
      </trkpt>
      <trkpt lat="44.28106" lon="2.44091">
        <ele>759</ele>
        <time>2018-03-25T14:02:17.000Z</time>
      </trkpt>
      <trkpt lat="44.28107" lon="2.44079">
        <ele>758.59997558594</ele>
        <time>2018-03-25T14:02:21.000Z</time>
      </trkpt>
      <trkpt lat="44.28103" lon="2.44072">
        <ele>759</ele>
        <time>2018-03-25T14:02:24.000Z</time>
      </trkpt>
      <trkpt lat="44.28106" lon="2.44048">
        <ele>758</ele>
        <time>2018-03-25T14:02:30.000Z</time>
      </trkpt>
      <trkpt lat="44.28124" lon="2.44023">
        <ele>754.40002441406</ele>
        <time>2018-03-25T14:02:35.000Z</time>
      </trkpt>
      <trkpt lat="44.28154" lon="2.43985">
        <ele>750</ele>
        <time>2018-03-25T14:02:41.000Z</time>
      </trkpt>
      <trkpt lat="44.28163" lon="2.43974">
        <ele>749.40002441406</ele>
        <time>2018-03-25T14:02:43.000Z</time>
      </trkpt>
      <trkpt lat="44.28177" lon="2.4397">
        <ele>748.59997558594</ele>
        <time>2018-03-25T14:02:47.000Z</time>
      </trkpt>
      <trkpt lat="44.28184" lon="2.43976">
        <ele>748.59997558594</ele>
        <time>2018-03-25T14:02:49.000Z</time>
      </trkpt>
      <trkpt lat="44.28215" lon="2.44002">
        <ele>749.20001220703</ele>
        <time>2018-03-25T14:02:58.000Z</time>
      </trkpt>
      <trkpt lat="44.2824" lon="2.44028">
        <ele>748.20001220703</ele>
        <time>2018-03-25T14:03:06.000Z</time>
      </trkpt>
      <trkpt lat="44.28251" lon="2.4404">
        <ele>747.79998779297</ele>
        <time>2018-03-25T14:03:09.000Z</time>
      </trkpt>
      <trkpt lat="44.28267" lon="2.44049">
        <ele>747</ele>
        <time>2018-03-25T14:03:13.000Z</time>
      </trkpt>
      <trkpt lat="44.2827" lon="2.44039">
        <ele>746.59997558594</ele>
        <time>2018-03-25T14:03:16.000Z</time>
      </trkpt>
      <trkpt lat="44.28268" lon="2.44022">
        <ele>746</ele>
        <time>2018-03-25T14:03:21.000Z</time>
      </trkpt>
      <trkpt lat="44.28273" lon="2.44012">
        <ele>745.20001220703</ele>
        <time>2018-03-25T14:03:26.000Z</time>
      </trkpt>
      <trkpt lat="44.28272" lon="2.44005">
        <ele>745</ele>
        <time>2018-03-25T14:03:29.000Z</time>
      </trkpt>
      <trkpt lat="44.2827" lon="2.43995">
        <ele>745</ele>
        <time>2018-03-25T14:03:32.000Z</time>
      </trkpt>
      <trkpt lat="44.28263" lon="2.43962">
        <ele>744.59997558594</ele>
        <time>2018-03-25T14:03:39.000Z</time>
      </trkpt>
      <trkpt lat="44.28251" lon="2.43931">
        <ele>745.40002441406</ele>
        <time>2018-03-25T14:03:46.000Z</time>
      </trkpt>
      <trkpt lat="44.28237" lon="2.43914">
        <ele>745.20001220703</ele>
        <time>2018-03-25T14:03:52.000Z</time>
      </trkpt>
      <trkpt lat="44.28234" lon="2.4391">
        <ele>744.59997558594</ele>
        <time>2018-03-25T14:03:53.000Z</time>
      </trkpt>
      <trkpt lat="44.28215" lon="2.43908">
        <ele>744</ele>
        <time>2018-03-25T14:03:57.000Z</time>
      </trkpt>
      <trkpt lat="44.28195" lon="2.4391">
        <ele>744</ele>
        <time>2018-03-25T14:04:02.000Z</time>
      </trkpt>
      <trkpt lat="44.28193" lon="2.43894">
        <ele>744.40002441406</ele>
        <time>2018-03-25T14:04:05.000Z</time>
      </trkpt>
      <trkpt lat="44.28194" lon="2.43888">
        <ele>744.40002441406</ele>
        <time>2018-03-25T14:04:06.000Z</time>
      </trkpt>
      <trkpt lat="44.28198" lon="2.43853">
        <ele>744.59997558594</ele>
        <time>2018-03-25T14:04:12.000Z</time>
      </trkpt>
      <trkpt lat="44.28188" lon="2.43834">
        <ele>745.40002441406</ele>
        <time>2018-03-25T14:04:16.000Z</time>
      </trkpt>
      <trkpt lat="44.28185" lon="2.4383">
        <ele>746</ele>
        <time>2018-03-25T14:04:17.000Z</time>
      </trkpt>
      <trkpt lat="44.28169" lon="2.43814">
        <ele>747.59997558594</ele>
        <time>2018-03-25T14:04:23.000Z</time>
      </trkpt>
      <trkpt lat="44.28159" lon="2.43787">
        <ele>747</ele>
        <time>2018-03-25T14:04:29.000Z</time>
      </trkpt>
      <trkpt lat="44.28151" lon="2.43772">
        <ele>746.59997558594</ele>
        <time>2018-03-25T14:04:32.000Z</time>
      </trkpt>
      <trkpt lat="44.28141" lon="2.43745">
        <ele>746.20001220703</ele>
        <time>2018-03-25T14:04:37.000Z</time>
      </trkpt>
      <trkpt lat="44.28128" lon="2.437">
        <ele>746.40002441406</ele>
        <time>2018-03-25T14:04:45.000Z</time>
      </trkpt>
      <trkpt lat="44.28124" lon="2.43689">
        <ele>746.59997558594</ele>
        <time>2018-03-25T14:04:47.000Z</time>
      </trkpt>
      <trkpt lat="44.28124" lon="2.43664">
        <ele>747</ele>
        <time>2018-03-25T14:04:51.000Z</time>
      </trkpt>
      <trkpt lat="44.28123" lon="2.43632">
        <ele>747.79998779297</ele>
        <time>2018-03-25T14:04:57.000Z</time>
      </trkpt>
      <trkpt lat="44.28117" lon="2.43587">
        <ele>748.59997558594</ele>
        <time>2018-03-25T14:05:06.000Z</time>
      </trkpt>
      <trkpt lat="44.28114" lon="2.43559">
        <ele>748.59997558594</ele>
        <time>2018-03-25T14:05:12.000Z</time>
      </trkpt>
      <trkpt lat="44.28112" lon="2.43546">
        <ele>748.59997558594</ele>
        <time>2018-03-25T14:05:15.000Z</time>
      </trkpt>
      <trkpt lat="44.28114" lon="2.43514">
        <ele>748.59997558594</ele>
        <time>2018-03-25T14:05:21.000Z</time>
      </trkpt>
      <trkpt lat="44.28116" lon="2.43509">
        <ele>749.20001220703</ele>
        <time>2018-03-25T14:05:22.000Z</time>
      </trkpt>
      <trkpt lat="44.28136" lon="2.43494">
        <ele>747.59997558594</ele>
        <time>2018-03-25T14:05:27.000Z</time>
      </trkpt>
      <trkpt lat="44.28165" lon="2.43477">
        <ele>746</ele>
        <time>2018-03-25T14:05:32.000Z</time>
      </trkpt>
      <trkpt lat="44.28183" lon="2.43463">
        <ele>746.59997558594</ele>
        <time>2018-03-25T14:05:37.000Z</time>
      </trkpt>
      <trkpt lat="44.282" lon="2.4345">
        <ele>749.20001220703</ele>
        <time>2018-03-25T14:05:44.000Z</time>
      </trkpt>
      <trkpt lat="44.28204" lon="2.43448">
        <ele>749.79998779297</ele>
        <time>2018-03-25T14:05:46.000Z</time>
      </trkpt>
      <trkpt lat="44.28212" lon="2.43458">
        <ele>750.59997558594</ele>
        <time>2018-03-25T14:05:51.000Z</time>
      </trkpt>
      <trkpt lat="44.28228" lon="2.43483">
        <ele>749.79998779297</ele>
        <time>2018-03-25T14:05:57.000Z</time>
      </trkpt>
      <trkpt lat="44.28235" lon="2.43492">
        <ele>749</ele>
        <time>2018-03-25T14:05:59.000Z</time>
      </trkpt>
      <trkpt lat="44.28264" lon="2.43512">
        <ele>746</ele>
        <time>2018-03-25T14:06:05.000Z</time>
      </trkpt>
      <trkpt lat="44.283" lon="2.43529">
        <ele>745.20001220703</ele>
        <time>2018-03-25T14:06:11.000Z</time>
      </trkpt>
      <trkpt lat="44.28316" lon="2.43539">
        <ele>745</ele>
        <time>2018-03-25T14:06:14.000Z</time>
      </trkpt>
      <trkpt lat="44.28333" lon="2.4356">
        <ele>745.79998779297</ele>
        <time>2018-03-25T14:06:19.000Z</time>
      </trkpt>
      <trkpt lat="44.28334" lon="2.43571">
        <ele>746</ele>
        <time>2018-03-25T14:06:21.000Z</time>
      </trkpt>
      <trkpt lat="44.28335" lon="2.43613">
        <ele>747.20001220703</ele>
        <time>2018-03-25T14:06:29.000Z</time>
      </trkpt>
      <trkpt lat="44.28339" lon="2.43641">
        <ele>748</ele>
        <time>2018-03-25T14:06:35.000Z</time>
      </trkpt>
      <trkpt lat="44.28351" lon="2.43683">
        <ele>747.79998779297</ele>
        <time>2018-03-25T14:06:44.000Z</time>
      </trkpt>
      <trkpt lat="44.28358" lon="2.437">
        <ele>746.79998779297</ele>
        <time>2018-03-25T14:06:47.000Z</time>
      </trkpt>
      <trkpt lat="44.28377" lon="2.43713">
        <ele>745.20001220703</ele>
        <time>2018-03-25T14:06:51.000Z</time>
      </trkpt>
      <trkpt lat="44.28386" lon="2.43712">
        <ele>744.79998779297</ele>
        <time>2018-03-25T14:06:53.000Z</time>
      </trkpt>
      <trkpt lat="44.28406" lon="2.43697">
        <ele>745.79998779297</ele>
        <time>2018-03-25T14:06:59.000Z</time>
      </trkpt>
      <trkpt lat="44.28417" lon="2.43672">
        <ele>747.40002441406</ele>
        <time>2018-03-25T14:07:05.000Z</time>
      </trkpt>
      <trkpt lat="44.28427" lon="2.43647">
        <ele>748.40002441406</ele>
        <time>2018-03-25T14:07:11.000Z</time>
      </trkpt>
      <trkpt lat="44.28444" lon="2.43614">
        <ele>750.20001220703</ele>
        <time>2018-03-25T14:07:20.000Z</time>
      </trkpt>
      <trkpt lat="44.28459" lon="2.4358">
        <ele>751.59997558594</ele>
        <time>2018-03-25T14:07:29.000Z</time>
      </trkpt>
      <trkpt lat="44.28473" lon="2.43565">
        <ele>751.79998779297</ele>
        <time>2018-03-25T14:07:34.000Z</time>
      </trkpt>
      <trkpt lat="44.28487" lon="2.43564">
        <ele>752.20001220703</ele>
        <time>2018-03-25T14:07:38.000Z</time>
      </trkpt>
      <trkpt lat="44.2851" lon="2.43581">
        <ele>753.20001220703</ele>
        <time>2018-03-25T14:07:46.000Z</time>
      </trkpt>
      <trkpt lat="44.28535" lon="2.436">
        <ele>752.20001220703</ele>
        <time>2018-03-25T14:07:53.000Z</time>
      </trkpt>
      <trkpt lat="44.28566" lon="2.43622">
        <ele>750.79998779297</ele>
        <time>2018-03-25T14:07:59.000Z</time>
      </trkpt>
      <trkpt lat="44.28589" lon="2.43658">
        <ele>747.79998779297</ele>
        <time>2018-03-25T14:08:04.000Z</time>
      </trkpt>
      <trkpt lat="44.28592" lon="2.43669">
        <ele>746.79998779297</ele>
        <time>2018-03-25T14:08:05.000Z</time>
      </trkpt>
      <trkpt lat="44.28611" lon="2.43758">
        <ele>744.59997558594</ele>
        <time>2018-03-25T14:08:13.000Z</time>
      </trkpt>
      <trkpt lat="44.28618" lon="2.43792">
        <ele>745.40002441406</ele>
        <time>2018-03-25T14:08:17.000Z</time>
      </trkpt>
      <trkpt lat="44.28624" lon="2.4382">
        <ele>747.40002441406</ele>
        <time>2018-03-25T14:08:22.000Z</time>
      </trkpt>
      <trkpt lat="44.2863" lon="2.43846">
        <ele>749.20001220703</ele>
        <time>2018-03-25T14:08:28.000Z</time>
      </trkpt>
      <trkpt lat="44.28639" lon="2.43877">
        <ele>750.20001220703</ele>
        <time>2018-03-25T14:08:35.000Z</time>
      </trkpt>
      <trkpt lat="44.28655" lon="2.4393">
        <ele>751.40002441406</ele>
        <time>2018-03-25T14:08:46.000Z</time>
      </trkpt>
      <trkpt lat="44.28666" lon="2.43968">
        <ele>750.20001220703</ele>
        <time>2018-03-25T14:08:53.000Z</time>
      </trkpt>
      <trkpt lat="44.28677" lon="2.44002">
        <ele>748.20001220703</ele>
        <time>2018-03-25T14:08:57.000Z</time>
      </trkpt>
      <trkpt lat="44.2868" lon="2.44044">
        <ele>746.20001220703</ele>
        <time>2018-03-25T14:09:01.000Z</time>
      </trkpt>
      <trkpt lat="44.28677" lon="2.44087">
        <ele>746</ele>
        <time>2018-03-25T14:09:05.000Z</time>
      </trkpt>
      <trkpt lat="44.28684" lon="2.4413">
        <ele>746</ele>
        <time>2018-03-25T14:09:10.000Z</time>
      </trkpt>
      <trkpt lat="44.28697" lon="2.44192">
        <ele>745.20001220703</ele>
        <time>2018-03-25T14:09:18.000Z</time>
      </trkpt>
      <trkpt lat="44.28696" lon="2.4422">
        <ele>745.59997558594</ele>
        <time>2018-03-25T14:09:22.000Z</time>
      </trkpt>
      <trkpt lat="44.28677" lon="2.44267">
        <ele>746.59997558594</ele>
        <time>2018-03-25T14:09:31.000Z</time>
      </trkpt>
      <trkpt lat="44.28662" lon="2.4428">
        <ele>746.59997558594</ele>
        <time>2018-03-25T14:09:36.000Z</time>
      </trkpt>
      <trkpt lat="44.28644" lon="2.4428">
        <ele>745.79998779297</ele>
        <time>2018-03-25T14:09:41.000Z</time>
      </trkpt>
      <trkpt lat="44.28633" lon="2.44272">
        <ele>745.59997558594</ele>
        <time>2018-03-25T14:09:45.000Z</time>
      </trkpt>
      <trkpt lat="44.28631" lon="2.44271">
        <ele>745.59997558594</ele>
        <time>2018-03-25T14:09:47.000Z</time>
      </trkpt>
      <trkpt lat="44.28632" lon="2.44276">
        <ele>745.79998779297</ele>
        <time>2018-03-25T14:09:52.000Z</time>
      </trkpt>
      <trkpt lat="44.28629" lon="2.44281">
        <ele>745.59997558594</ele>
        <time>2018-03-25T14:09:56.000Z</time>
      </trkpt>
      <trkpt lat="44.28624" lon="2.44289">
        <ele>745.20001220703</ele>
        <time>2018-03-25T14:10:00.000Z</time>
      </trkpt>
      <trkpt lat="44.28614" lon="2.44309">
        <ele>744.79998779297</ele>
        <time>2018-03-25T14:10:07.000Z</time>
      </trkpt>
      <trkpt lat="44.28605" lon="2.44317">
        <ele>744.40002441406</ele>
        <time>2018-03-25T14:10:12.000Z</time>
      </trkpt>
      <trkpt lat="44.28607" lon="2.44321">
        <ele>744.59997558594</ele>
        <time>2018-03-25T14:10:14.000Z</time>
      </trkpt>
      <trkpt lat="44.28628" lon="2.44335">
        <ele>745.79998779297</ele>
        <time>2018-03-25T14:10:22.000Z</time>
      </trkpt>
      <trkpt lat="44.28647" lon="2.44347">
        <ele>747</ele>
        <time>2018-03-25T14:10:28.000Z</time>
      </trkpt>
      <trkpt lat="44.28669" lon="2.44357">
        <ele>747.79998779297</ele>
        <time>2018-03-25T14:10:35.000Z</time>
      </trkpt>
      <trkpt lat="44.28693" lon="2.44364">
        <ele>747.79998779297</ele>
        <time>2018-03-25T14:10:43.000Z</time>
      </trkpt>
      <trkpt lat="44.28716" lon="2.44374">
        <ele>747</ele>
        <time>2018-03-25T14:10:50.000Z</time>
      </trkpt>
      <trkpt lat="44.28735" lon="2.4438">
        <ele>746.20001220703</ele>
        <time>2018-03-25T14:10:54.000Z</time>
      </trkpt>
      <trkpt lat="44.28744" lon="2.44389">
        <ele>746.20001220703</ele>
        <time>2018-03-25T14:10:57.000Z</time>
      </trkpt>
      <trkpt lat="44.28741" lon="2.44397">
        <ele>746</ele>
        <time>2018-03-25T14:10:59.000Z</time>
      </trkpt>
      <trkpt lat="44.2872" lon="2.44435">
        <ele>746.20001220703</ele>
        <time>2018-03-25T14:11:09.000Z</time>
      </trkpt>
      <trkpt lat="44.2871" lon="2.44466">
        <ele>744.79998779297</ele>
        <time>2018-03-25T14:11:14.000Z</time>
      </trkpt>
      <trkpt lat="44.287" lon="2.44503">
        <ele>744.20001220703</ele>
        <time>2018-03-25T14:11:19.000Z</time>
      </trkpt>
      <trkpt lat="44.28694" lon="2.44551">
        <ele>746.20001220703</ele>
        <time>2018-03-25T14:11:27.000Z</time>
      </trkpt>
      <trkpt lat="44.28692" lon="2.44583">
        <ele>747.20001220703</ele>
        <time>2018-03-25T14:11:34.000Z</time>
      </trkpt>
      <trkpt lat="44.28693" lon="2.44607">
        <ele>746.40002441406</ele>
        <time>2018-03-25T14:11:39.000Z</time>
      </trkpt>
      <trkpt lat="44.28699" lon="2.44638">
        <ele>745.59997558594</ele>
        <time>2018-03-25T14:11:44.000Z</time>
      </trkpt>
      <trkpt lat="44.28699" lon="2.44659">
        <ele>746.20001220703</ele>
        <time>2018-03-25T14:11:48.000Z</time>
      </trkpt>
      <trkpt lat="44.28695" lon="2.44666">
        <ele>746.40002441406</ele>
        <time>2018-03-25T14:11:50.000Z</time>
      </trkpt>
      <trkpt lat="44.28677" lon="2.44695">
        <ele>744.59997558594</ele>
        <time>2018-03-25T14:11:57.000Z</time>
      </trkpt>
      <trkpt lat="44.28674" lon="2.447">
        <ele>744</ele>
        <time>2018-03-25T14:11:58.000Z</time>
      </trkpt>
      <trkpt lat="44.28671" lon="2.44719">
        <ele>742.59997558594</ele>
        <time>2018-03-25T14:12:02.000Z</time>
      </trkpt>
      <trkpt lat="44.28677" lon="2.44722">
        <ele>742.40002441406</ele>
        <time>2018-03-25T14:12:04.000Z</time>
      </trkpt>
      <trkpt lat="44.28704" lon="2.44733">
        <ele>742</ele>
        <time>2018-03-25T14:12:12.000Z</time>
      </trkpt>
      <trkpt lat="44.28707" lon="2.44735">
        <ele>741.79998779297</ele>
        <time>2018-03-25T14:12:13.000Z</time>
      </trkpt>
      <trkpt lat="44.28733" lon="2.44737">
        <ele>740</ele>
        <time>2018-03-25T14:12:18.000Z</time>
      </trkpt>
      <trkpt lat="44.28754" lon="2.4473">
        <ele>738.40002441406</ele>
        <time>2018-03-25T14:12:22.000Z</time>
      </trkpt>
      <trkpt lat="44.28762" lon="2.44744">
        <ele>737.59997558594</ele>
        <time>2018-03-25T14:12:25.000Z</time>
      </trkpt>
      <trkpt lat="44.28758" lon="2.44773">
        <ele>736.20001220703</ele>
        <time>2018-03-25T14:12:29.000Z</time>
      </trkpt>
      <trkpt lat="44.2875" lon="2.44786">
        <ele>735.79998779297</ele>
        <time>2018-03-25T14:12:31.000Z</time>
      </trkpt>
      <trkpt lat="44.28735" lon="2.44812">
        <ele>735.20001220703</ele>
        <time>2018-03-25T14:12:35.000Z</time>
      </trkpt>
      <trkpt lat="44.28723" lon="2.44849">
        <ele>735.20001220703</ele>
        <time>2018-03-25T14:12:41.000Z</time>
      </trkpt>
      <trkpt lat="44.28722" lon="2.44882">
        <ele>734.59997558594</ele>
        <time>2018-03-25T14:12:47.000Z</time>
      </trkpt>
      <trkpt lat="44.28721" lon="2.44922">
        <ele>733.59997558594</ele>
        <time>2018-03-25T14:12:53.000Z</time>
      </trkpt>
      <trkpt lat="44.28721" lon="2.44976">
        <ele>732.79998779297</ele>
        <time>2018-03-25T14:13:02.000Z</time>
      </trkpt>
      <trkpt lat="44.28721" lon="2.44994">
        <ele>732.40002441406</ele>
        <time>2018-03-25T14:13:05.000Z</time>
      </trkpt>
      <trkpt lat="44.28727" lon="2.45018">
        <ele>731.20001220703</ele>
        <time>2018-03-25T14:13:09.000Z</time>
      </trkpt>
      <trkpt lat="44.28723" lon="2.45039">
        <ele>729</ele>
        <time>2018-03-25T14:13:13.000Z</time>
      </trkpt>
      <trkpt lat="44.28718" lon="2.45043">
        <ele>728.40002441406</ele>
        <time>2018-03-25T14:13:14.000Z</time>
      </trkpt>
      <trkpt lat="44.28706" lon="2.4505">
        <ele>727</ele>
        <time>2018-03-25T14:13:16.000Z</time>
      </trkpt>
      <trkpt lat="44.28659" lon="2.45062">
        <ele>722.79998779297</ele>
        <time>2018-03-25T14:13:22.000Z</time>
      </trkpt>
      <trkpt lat="44.28619" lon="2.45076">
        <ele>721.59997558594</ele>
        <time>2018-03-25T14:13:27.000Z</time>
      </trkpt>
      <trkpt lat="44.28609" lon="2.45082">
        <ele>721.79998779297</ele>
        <time>2018-03-25T14:13:30.000Z</time>
      </trkpt>
      <trkpt lat="44.286" lon="2.45093">
        <ele>722.59997558594</ele>
        <time>2018-03-25T14:13:36.000Z</time>
      </trkpt>
      <trkpt lat="44.28593" lon="2.45104">
        <ele>723.59997558594</ele>
        <time>2018-03-25T14:13:42.000Z</time>
      </trkpt>
      <trkpt lat="44.28585" lon="2.45116">
        <ele>725</ele>
        <time>2018-03-25T14:13:47.000Z</time>
      </trkpt>
      <trkpt lat="44.28572" lon="2.45132">
        <ele>727.79998779297</ele>
        <time>2018-03-25T14:13:53.000Z</time>
      </trkpt>
      <trkpt lat="44.28552" lon="2.45139">
        <ele>731.40002441406</ele>
        <time>2018-03-25T14:14:01.000Z</time>
      </trkpt>
      <trkpt lat="44.28532" lon="2.45139">
        <ele>733.40002441406</ele>
        <time>2018-03-25T14:14:08.000Z</time>
      </trkpt>
      <trkpt lat="44.28507" lon="2.45137">
        <ele>733.79998779297</ele>
        <time>2018-03-25T14:14:16.000Z</time>
      </trkpt>
      <trkpt lat="44.28469" lon="2.45136">
        <ele>732.59997558594</ele>
        <time>2018-03-25T14:14:27.000Z</time>
      </trkpt>
      <trkpt lat="44.28436" lon="2.45135">
        <ele>732.59997558594</ele>
        <time>2018-03-25T14:14:35.000Z</time>
      </trkpt>
      <trkpt lat="44.28401" lon="2.45133">
        <ele>733</ele>
        <time>2018-03-25T14:14:44.000Z</time>
      </trkpt>
      <trkpt lat="44.28373" lon="2.45129">
        <ele>733.40002441406</ele>
        <time>2018-03-25T14:14:52.000Z</time>
      </trkpt>
      <trkpt lat="44.28356" lon="2.45126">
        <ele>733.79998779297</ele>
        <time>2018-03-25T14:15:00.000Z</time>
      </trkpt>
      <trkpt lat="44.28346" lon="2.45125">
        <ele>734.20001220703</ele>
        <time>2018-03-25T14:15:07.000Z</time>
      </trkpt>
      <trkpt lat="44.28335" lon="2.45123">
        <ele>735</ele>
        <time>2018-03-25T14:15:13.000Z</time>
      </trkpt>
      <trkpt lat="44.28314" lon="2.45121">
        <ele>737.40002441406</ele>
        <time>2018-03-25T14:15:20.000Z</time>
      </trkpt>
      <trkpt lat="44.28291" lon="2.45118">
        <ele>740.40002441406</ele>
        <time>2018-03-25T14:15:28.000Z</time>
      </trkpt>
      <trkpt lat="44.28265" lon="2.45116">
        <ele>742.20001220703</ele>
        <time>2018-03-25T14:15:37.000Z</time>
      </trkpt>
      <trkpt lat="44.2824" lon="2.45113">
        <ele>744.59997558594</ele>
        <time>2018-03-25T14:15:46.000Z</time>
      </trkpt>
      <trkpt lat="44.2822" lon="2.45112">
        <ele>748.59997558594</ele>
        <time>2018-03-25T14:15:54.000Z</time>
      </trkpt>
      <trkpt lat="44.28205" lon="2.45111">
        <ele>750.40002441406</ele>
        <time>2018-03-25T14:16:00.000Z</time>
      </trkpt>
      <trkpt lat="44.28194" lon="2.45114">
        <ele>752</ele>
        <time>2018-03-25T14:16:05.000Z</time>
      </trkpt>
      <trkpt lat="44.28181" lon="2.45117">
        <ele>753.40002441406</ele>
        <time>2018-03-25T14:16:11.000Z</time>
      </trkpt>
      <trkpt lat="44.28165" lon="2.45122">
        <ele>754</ele>
        <time>2018-03-25T14:16:18.000Z</time>
      </trkpt>
      <trkpt lat="44.28135" lon="2.45134">
        <ele>755.59997558594</ele>
        <time>2018-03-25T14:16:30.000Z</time>
      </trkpt>
      <trkpt lat="44.28118" lon="2.45146">
        <ele>756</ele>
        <time>2018-03-25T14:16:37.000Z</time>
      </trkpt>
      <trkpt lat="44.28097" lon="2.45161">
        <ele>756.59997558594</ele>
        <time>2018-03-25T14:16:45.000Z</time>
      </trkpt>
      <trkpt lat="44.28066" lon="2.45176">
        <ele>758.40002441406</ele>
        <time>2018-03-25T14:16:56.000Z</time>
      </trkpt>
      <trkpt lat="44.28032" lon="2.45186">
        <ele>761</ele>
        <time>2018-03-25T14:17:07.000Z</time>
      </trkpt>
      <trkpt lat="44.28014" lon="2.45191">
        <ele>762.40002441406</ele>
        <time>2018-03-25T14:17:13.000Z</time>
      </trkpt>
      <trkpt lat="44.27989" lon="2.45194">
        <ele>764.59997558594</ele>
        <time>2018-03-25T14:17:21.000Z</time>
      </trkpt>
      <trkpt lat="44.27956" lon="2.45195">
        <ele>766.20001220703</ele>
        <time>2018-03-25T14:17:32.000Z</time>
      </trkpt>
      <trkpt lat="44.27926" lon="2.45193">
        <ele>767.79998779297</ele>
        <time>2018-03-25T14:17:42.000Z</time>
      </trkpt>
      <trkpt lat="44.27907" lon="2.4519">
        <ele>769.20001220703</ele>
        <time>2018-03-25T14:17:48.000Z</time>
      </trkpt>
      <trkpt lat="44.27866" lon="2.45186">
        <ele>773</ele>
        <time>2018-03-25T14:18:00.000Z</time>
      </trkpt>
      <trkpt lat="44.2784" lon="2.45185">
        <ele>774.79998779297</ele>
        <time>2018-03-25T14:18:08.000Z</time>
      </trkpt>
      <trkpt lat="44.27808" lon="2.45184">
        <ele>776.40002441406</ele>
        <time>2018-03-25T14:18:18.000Z</time>
      </trkpt>
      <trkpt lat="44.2779" lon="2.45178">
        <ele>777</ele>
        <time>2018-03-25T14:18:25.000Z</time>
      </trkpt>
      <trkpt lat="44.27792" lon="2.45167">
        <ele>776.20001220703</ele>
        <time>2018-03-25T14:18:29.000Z</time>
      </trkpt>
      <trkpt lat="44.27815" lon="2.45139">
        <ele>772.59997558594</ele>
        <time>2018-03-25T14:18:35.000Z</time>
      </trkpt>
      <trkpt lat="44.27823" lon="2.45127">
        <ele>771.20001220703</ele>
        <time>2018-03-25T14:18:37.000Z</time>
      </trkpt>
      <trkpt lat="44.27845" lon="2.45079">
        <ele>767.20001220703</ele>
        <time>2018-03-25T14:18:43.000Z</time>
      </trkpt>
      <trkpt lat="44.27876" lon="2.45025">
        <ele>763</ele>
        <time>2018-03-25T14:18:49.000Z</time>
      </trkpt>
      <trkpt lat="44.27907" lon="2.44998">
        <ele>759.20001220703</ele>
        <time>2018-03-25T14:18:53.000Z</time>
      </trkpt>
      <trkpt lat="44.27917" lon="2.44995">
        <ele>758.20001220703</ele>
        <time>2018-03-25T14:18:54.000Z</time>
      </trkpt>
      <trkpt lat="44.27978" lon="2.44971">
        <ele>752.40002441406</ele>
        <time>2018-03-25T14:19:00.000Z</time>
      </trkpt>
      <trkpt lat="44.28024" lon="2.44951">
        <ele>747.20001220703</ele>
        <time>2018-03-25T14:19:05.000Z</time>
      </trkpt>
      <trkpt lat="44.2805" lon="2.44942">
        <ele>743.79998779297</ele>
        <time>2018-03-25T14:19:08.000Z</time>
      </trkpt>
      <trkpt lat="44.28061" lon="2.4492">
        <ele>741.59997558594</ele>
        <time>2018-03-25T14:19:12.000Z</time>
      </trkpt>
      <trkpt lat="44.28057" lon="2.44861">
        <ele>742</ele>
        <time>2018-03-25T14:19:21.000Z</time>
      </trkpt>
      <trkpt lat="44.28058" lon="2.44812">
        <ele>743.40002441406</ele>
        <time>2018-03-25T14:19:29.000Z</time>
      </trkpt>
      <trkpt lat="44.28059" lon="2.44784">
        <ele>743.59997558594</ele>
        <time>2018-03-25T14:19:33.000Z</time>
      </trkpt>
      <trkpt lat="44.28057" lon="2.44733">
        <ele>742.20001220703</ele>
        <time>2018-03-25T14:19:39.000Z</time>
      </trkpt>
      <trkpt lat="44.2806" lon="2.44703">
        <ele>743.20001220703</ele>
        <time>2018-03-25T14:19:43.000Z</time>
      </trkpt>
      <trkpt lat="44.28063" lon="2.44684">
        <ele>745.79998779297</ele>
        <time>2018-03-25T14:19:48.000Z</time>
      </trkpt>
      <trkpt lat="44.28067" lon="2.44656">
        <ele>747.20001220703</ele>
        <time>2018-03-25T14:19:55.000Z</time>
      </trkpt>
      <trkpt lat="44.28073" lon="2.44622">
        <ele>747.40002441406</ele>
        <time>2018-03-25T14:20:01.000Z</time>
      </trkpt>
      <trkpt lat="44.28079" lon="2.44587">
        <ele>749</ele>
        <time>2018-03-25T14:20:08.000Z</time>
      </trkpt>
      <trkpt lat="44.28087" lon="2.44551">
        <ele>750.59997558594</ele>
        <time>2018-03-25T14:20:16.000Z</time>
      </trkpt>
      <trkpt lat="44.28095" lon="2.44533">
        <ele>752.20001220703</ele>
        <time>2018-03-25T14:20:22.000Z</time>
      </trkpt>
      <trkpt lat="44.28107" lon="2.44532">
        <ele>751.59997558594</ele>
        <time>2018-03-25T14:20:26.000Z</time>
      </trkpt>
      <trkpt lat="44.28111" lon="2.44532">
        <ele>751.40002441406</ele>
        <time>2018-03-25T14:20:27.000Z</time>
      </trkpt>
      <trkpt lat="44.28125" lon="2.44532">
        <ele>749.79998779297</ele>
        <time>2018-03-25T14:20:30.000Z</time>
      </trkpt>
      <trkpt lat="44.2816" lon="2.4454">
        <ele>745</ele>
        <time>2018-03-25T14:20:36.000Z</time>
      </trkpt>
      <trkpt lat="44.28203" lon="2.44554">
        <ele>740.20001220703</ele>
        <time>2018-03-25T14:20:42.000Z</time>
      </trkpt>
      <trkpt lat="44.28247" lon="2.44571">
        <ele>735.40002441406</ele>
        <time>2018-03-25T14:20:48.000Z</time>
      </trkpt>
      <trkpt lat="44.28253" lon="2.44573">
        <ele>735</ele>
        <time>2018-03-25T14:20:49.000Z</time>
      </trkpt>
      <trkpt lat="44.2829" lon="2.44574">
        <ele>730.59997558594</ele>
        <time>2018-03-25T14:20:55.000Z</time>
      </trkpt>
      <trkpt lat="44.28293" lon="2.44573">
        <ele>730</ele>
        <time>2018-03-25T14:20:56.000Z</time>
      </trkpt>
      <trkpt lat="44.28297" lon="2.4456">
        <ele>729.20001220703</ele>
        <time>2018-03-25T14:21:00.000Z</time>
      </trkpt>
      <trkpt lat="44.28296" lon="2.44551">
        <ele>728.79998779297</ele>
        <time>2018-03-25T14:21:02.000Z</time>
      </trkpt>
      <trkpt lat="44.28298" lon="2.44508">
        <ele>727.40002441406</ele>
        <time>2018-03-25T14:21:10.000Z</time>
      </trkpt>
      <trkpt lat="44.28297" lon="2.44484">
        <ele>727.40002441406</ele>
        <time>2018-03-25T14:21:15.000Z</time>
      </trkpt>
      <trkpt lat="44.28311" lon="2.44476">
        <ele>727</ele>
        <time>2018-03-25T14:21:20.000Z</time>
      </trkpt>
      <trkpt lat="44.28317" lon="2.44481">
        <ele>727</ele>
        <time>2018-03-25T14:21:22.000Z</time>
      </trkpt>
      <trkpt lat="44.28322" lon="2.44486">
        <ele>727</ele>
        <time>2018-03-25T14:21:24.000Z</time>
      </trkpt>
      <trkpt lat="44.2832" lon="2.44501">
        <ele>726.20001220703</ele>
        <time>2018-03-25T14:21:28.000Z</time>
      </trkpt>
      <trkpt lat="44.28315" lon="2.44507">
        <ele>725.20001220703</ele>
        <time>2018-03-25T14:21:30.000Z</time>
      </trkpt>
      <trkpt lat="44.28317" lon="2.44516">
        <ele>725.20001220703</ele>
        <time>2018-03-25T14:21:34.000Z</time>
      </trkpt>
      <trkpt lat="44.28328" lon="2.44518">
        <ele>725</ele>
        <time>2018-03-25T14:21:39.000Z</time>
      </trkpt>
      <trkpt lat="44.28337" lon="2.44534">
        <ele>725.79998779297</ele>
        <time>2018-03-25T14:21:44.000Z</time>
      </trkpt>
      <trkpt lat="44.28349" lon="2.44536">
        <ele>727</ele>
        <time>2018-03-25T14:21:48.000Z</time>
      </trkpt>
      <trkpt lat="44.28352" lon="2.44535">
        <ele>727.20001220703</ele>
        <time>2018-03-25T14:21:49.000Z</time>
      </trkpt>
      <trkpt lat="44.28373" lon="2.44528">
        <ele>729.20001220703</ele>
        <time>2018-03-25T14:21:57.000Z</time>
      </trkpt>
      <trkpt lat="44.28392" lon="2.44522">
        <ele>732</ele>
        <time>2018-03-25T14:22:04.000Z</time>
      </trkpt>
      <trkpt lat="44.28409" lon="2.44519">
        <ele>735</ele>
        <time>2018-03-25T14:22:10.000Z</time>
      </trkpt>
      <trkpt lat="44.28428" lon="2.44524">
        <ele>736.59997558594</ele>
        <time>2018-03-25T14:22:16.000Z</time>
      </trkpt>
      <trkpt lat="44.28448" lon="2.44538">
        <ele>739</ele>
        <time>2018-03-25T14:22:23.000Z</time>
      </trkpt>
      <trkpt lat="44.28462" lon="2.44549">
        <ele>740.40002441406</ele>
        <time>2018-03-25T14:22:29.000Z</time>
      </trkpt>
      <trkpt lat="44.28473" lon="2.4456">
        <ele>741.20001220703</ele>
        <time>2018-03-25T14:22:35.000Z</time>
      </trkpt>
      <trkpt lat="44.28492" lon="2.4458">
        <ele>742.40002441406</ele>
        <time>2018-03-25T14:22:43.000Z</time>
      </trkpt>
      <trkpt lat="44.28517" lon="2.44602">
        <ele>742.20001220703</ele>
        <time>2018-03-25T14:22:52.000Z</time>
      </trkpt>
      <trkpt lat="44.28543" lon="2.44621">
        <ele>740.59997558594</ele>
        <time>2018-03-25T14:22:59.000Z</time>
      </trkpt>
      <trkpt lat="44.28576" lon="2.4464">
        <ele>739</ele>
        <time>2018-03-25T14:23:05.000Z</time>
      </trkpt>
      <trkpt lat="44.28604" lon="2.44663">
        <ele>738.59997558594</ele>
        <time>2018-03-25T14:23:11.000Z</time>
      </trkpt>
      <trkpt lat="44.28633" lon="2.44695">
        <ele>738.79998779297</ele>
        <time>2018-03-25T14:23:19.000Z</time>
      </trkpt>
      <trkpt lat="44.28658" lon="2.44712">
        <ele>740.40002441406</ele>
        <time>2018-03-25T14:23:26.000Z</time>
      </trkpt>
      <trkpt lat="44.28671" lon="2.44709">
        <ele>741</ele>
        <time>2018-03-25T14:23:30.000Z</time>
      </trkpt>
      <trkpt lat="44.2868" lon="2.44695">
        <ele>742.20001220703</ele>
        <time>2018-03-25T14:23:35.000Z</time>
      </trkpt>
      <trkpt lat="44.28692" lon="2.44675">
        <ele>743.59997558594</ele>
        <time>2018-03-25T14:23:41.000Z</time>
      </trkpt>
      <trkpt lat="44.28705" lon="2.4465">
        <ele>744.40002441406</ele>
        <time>2018-03-25T14:23:50.000Z</time>
      </trkpt>
      <trkpt lat="44.28702" lon="2.44627">
        <ele>743.59997558594</ele>
        <time>2018-03-25T14:23:55.000Z</time>
      </trkpt>
      <trkpt lat="44.28697" lon="2.446">
        <ele>744.59997558594</ele>
        <time>2018-03-25T14:24:01.000Z</time>
      </trkpt>
      <trkpt lat="44.28695" lon="2.44573">
        <ele>745.20001220703</ele>
        <time>2018-03-25T14:24:08.000Z</time>
      </trkpt>
      <trkpt lat="44.28698" lon="2.44541">
        <ele>743.20001220703</ele>
        <time>2018-03-25T14:24:15.000Z</time>
      </trkpt>
      <trkpt lat="44.28702" lon="2.44497">
        <ele>742.40002441406</ele>
        <time>2018-03-25T14:24:22.000Z</time>
      </trkpt>
      <trkpt lat="44.28712" lon="2.44459">
        <ele>743.20001220703</ele>
        <time>2018-03-25T14:24:29.000Z</time>
      </trkpt>
      <trkpt lat="44.28725" lon="2.44421">
        <ele>745.20001220703</ele>
        <time>2018-03-25T14:24:38.000Z</time>
      </trkpt>
      <trkpt lat="44.28743" lon="2.44394">
        <ele>744.79998779297</ele>
        <time>2018-03-25T14:24:46.000Z</time>
      </trkpt>
      <trkpt lat="44.28745" lon="2.4439">
        <ele>744.79998779297</ele>
        <time>2018-03-25T14:24:47.000Z</time>
      </trkpt>
      <trkpt lat="44.2874" lon="2.44379">
        <ele>744</ele>
        <time>2018-03-25T14:24:51.000Z</time>
      </trkpt>
      <trkpt lat="44.28709" lon="2.44368">
        <ele>745.40002441406</ele>
        <time>2018-03-25T14:25:01.000Z</time>
      </trkpt>
      <trkpt lat="44.28687" lon="2.44359">
        <ele>746</ele>
        <time>2018-03-25T14:25:09.000Z</time>
      </trkpt>
      <trkpt lat="44.28664" lon="2.44352">
        <ele>745.59997558594</ele>
        <time>2018-03-25T14:25:17.000Z</time>
      </trkpt>
      <trkpt lat="44.28641" lon="2.44341">
        <ele>744.79998779297</ele>
        <time>2018-03-25T14:25:24.000Z</time>
      </trkpt>
      <trkpt lat="44.28614" lon="2.44323">
        <ele>742.79998779297</ele>
        <time>2018-03-25T14:25:31.000Z</time>
      </trkpt>
      <trkpt lat="44.28606" lon="2.44317">
        <ele>742.20001220703</ele>
        <time>2018-03-25T14:25:33.000Z</time>
      </trkpt>
      <trkpt lat="44.28608" lon="2.44308">
        <ele>742</ele>
        <time>2018-03-25T14:25:37.000Z</time>
      </trkpt>
      <trkpt lat="44.28615" lon="2.443">
        <ele>743</ele>
        <time>2018-03-25T14:25:42.000Z</time>
      </trkpt>
      <trkpt lat="44.28618" lon="2.44294">
        <ele>743</ele>
        <time>2018-03-25T14:25:44.000Z</time>
      </trkpt>
      <trkpt lat="44.28629" lon="2.44277">
        <ele>743.40002441406</ele>
        <time>2018-03-25T14:25:50.000Z</time>
      </trkpt>
      <trkpt lat="44.28636" lon="2.44278">
        <ele>743.59997558594</ele>
        <time>2018-03-25T14:25:53.000Z</time>
      </trkpt>
      <trkpt lat="44.28636" lon="2.44269">
        <ele>743.40002441406</ele>
        <time>2018-03-25T14:25:57.000Z</time>
      </trkpt>
      <trkpt lat="44.28634" lon="2.44268">
        <ele>743.40002441406</ele>
        <time>2018-03-25T14:25:58.000Z</time>
      </trkpt>
      <trkpt lat="44.28606" lon="2.44248">
        <ele>743</ele>
        <time>2018-03-25T14:26:07.000Z</time>
      </trkpt>
      <trkpt lat="44.28578" lon="2.44229">
        <ele>743.79998779297</ele>
        <time>2018-03-25T14:26:15.000Z</time>
      </trkpt>
      <trkpt lat="44.28543" lon="2.44205">
        <ele>744.40002441406</ele>
        <time>2018-03-25T14:26:24.000Z</time>
      </trkpt>
      <trkpt lat="44.28511" lon="2.44184">
        <ele>744.79998779297</ele>
        <time>2018-03-25T14:26:32.000Z</time>
      </trkpt>
      <trkpt lat="44.28503" lon="2.44178">
        <ele>744.79998779297</ele>
        <time>2018-03-25T14:26:34.000Z</time>
      </trkpt>
      <trkpt lat="44.28472" lon="2.44171">
        <ele>745</ele>
        <time>2018-03-25T14:26:41.000Z</time>
      </trkpt>
      <trkpt lat="44.28426" lon="2.44167">
        <ele>745.20001220703</ele>
        <time>2018-03-25T14:26:51.000Z</time>
      </trkpt>
      <trkpt lat="44.28375" lon="2.44164">
        <ele>745.20001220703</ele>
        <time>2018-03-25T14:27:02.000Z</time>
      </trkpt>
      <trkpt lat="44.28366" lon="2.44163">
        <ele>745.20001220703</ele>
        <time>2018-03-25T14:27:04.000Z</time>
      </trkpt>
      <trkpt lat="44.28348" lon="2.44153">
        <ele>745.40002441406</ele>
        <time>2018-03-25T14:27:09.000Z</time>
      </trkpt>
      <trkpt lat="44.28325" lon="2.44116">
        <ele>745.59997558594</ele>
        <time>2018-03-25T14:27:17.000Z</time>
      </trkpt>
      <trkpt lat="44.28298" lon="2.44078">
        <ele>745.59997558594</ele>
        <time>2018-03-25T14:27:26.000Z</time>
      </trkpt>
      <trkpt lat="44.2828" lon="2.4406">
        <ele>745.79998779297</ele>
        <time>2018-03-25T14:27:32.000Z</time>
      </trkpt>
      <trkpt lat="44.28275" lon="2.4403">
        <ele>745.40002441406</ele>
        <time>2018-03-25T14:27:38.000Z</time>
      </trkpt>
      <trkpt lat="44.28273" lon="2.44019">
        <ele>745</ele>
        <time>2018-03-25T14:27:40.000Z</time>
      </trkpt>
    </trkseg>
  </trk>
</gpx>